<?xml version='1.0' encoding='UTF-8'?><gpx version="1.1" creator="JPX - https://github.com/jenetics/jpx" xmlns="http://www.topografix.com/GPX/1/1"><trk><trkseg><trkpt lat="45.3293637" lon="8.8285319"><ele>112.19999999999999</ele><time>2026-04-18T14:15:54.999Z</time></trkpt><trkpt lat="45.3293214" lon="8.8284118"><ele>112.39999999999999</ele><time>2026-04-18T14:15:56.999Z</time></trkpt><trkpt lat="45.3292646" lon="8.8282781"><ele>112.60000000000001</ele><time>2026-04-18T14:15:58.999Z</time></trkpt><trkpt lat="45.3292034" lon="8.8281156"><ele>112.80000000000001</ele><time>2026-04-18T14:16:00.998Z</time></trkpt><trkpt lat="45.3291739" lon="8.8280328"><ele>113.0</ele><time>2026-04-18T14:16:01.999Z</time></trkpt><trkpt lat="45.3291193" lon="8.8278746"><ele>113.0</ele><time>2026-04-18T14:16:03.998Z</time></trkpt><trkpt lat="45.3290902" lon="8.8277824"><ele>113.0</ele><time>2026-04-18T14:16:04.999Z</time></trkpt><trkpt lat="45.3290622" lon="8.8276938"><ele>113.0</ele><time>2026-04-18T14:16:05.998Z</time></trkpt><trkpt lat="45.3290361" lon="8.8275965"><ele>113.0</ele><time>2026-04-18T14:16:06.999Z</time></trkpt><trkpt lat="45.3290094" lon="8.8274982"><ele>113.0</ele><time>2026-04-18T14:16:07.999Z</time></trkpt><trkpt lat="45.3289786" lon="8.8273954"><ele>113.0</ele><time>2026-04-18T14:16:08.999Z</time></trkpt><trkpt lat="45.3289525" lon="8.8272899"><ele>113.0</ele><time>2026-04-18T14:16:09.999Z</time></trkpt><trkpt lat="45.3289276" lon="8.8271965"><ele>113.0</ele><time>2026-04-18T14:16:10.998Z</time></trkpt><trkpt lat="45.328904" lon="8.8271041"><ele>113.0</ele><time>2026-04-18T14:16:11.999Z</time></trkpt><trkpt lat="45.3288792" lon="8.8270101"><ele>113.0</ele><time>2026-04-18T14:16:12.999Z</time></trkpt><trkpt lat="45.3288594" lon="8.8269162"><ele>113.0</ele><time>2026-04-18T14:16:13.998Z</time></trkpt><trkpt lat="45.3288291" lon="8.8268217"><ele>113.0</ele><time>2026-04-18T14:16:14.999Z</time></trkpt><trkpt lat="45.3288054" lon="8.8267305"><ele>113.0</ele><time>2026-04-18T14:16:15.999Z</time></trkpt><trkpt lat="45.3287782" lon="8.8266325"><ele>113.0</ele><time>2026-04-18T14:16:16.998Z</time></trkpt><trkpt lat="45.3287519" lon="8.8265382"><ele>113.0</ele><time>2026-04-18T14:16:17.998Z</time></trkpt><trkpt lat="45.3287133" lon="8.8263748"><ele>113.0</ele><time>2026-04-18T14:16:19.999Z</time></trkpt><trkpt lat="45.3286729" lon="8.8262123"><ele>113.0</ele><time>2026-04-18T14:16:21.998Z</time></trkpt><trkpt lat="45.3286369" lon="8.8260492"><ele>113.0</ele><time>2026-04-18T14:16:23.999Z</time></trkpt><trkpt lat="45.3286012" lon="8.8259171"><ele>113.0</ele><time>2026-04-18T14:16:25.999Z</time></trkpt><trkpt lat="45.3285628" lon="8.8258103"><ele>113.00000000000001</ele><time>2026-04-18T14:16:28.998Z</time></trkpt><trkpt lat="45.3285219" lon="8.8257092"><ele>113.00000000000001</ele><time>2026-04-18T14:16:31.999Z</time></trkpt><trkpt lat="45.3285067" lon="8.8255992"><ele>113.0</ele><time>2026-04-18T14:16:33.999Z</time></trkpt><trkpt lat="45.328488" lon="8.8254577"><ele>113.0</ele><time>2026-04-18T14:16:35.999Z</time></trkpt><trkpt lat="45.3284363" lon="8.8253163"><ele>113.0</ele><time>2026-04-18T14:16:37.998Z</time></trkpt><trkpt lat="45.3283907" lon="8.8251727"><ele>113.00000000000001</ele><time>2026-04-18T14:16:39.999Z</time></trkpt><trkpt lat="45.3283555" lon="8.8250095"><ele>113.00000000000001</ele><time>2026-04-18T14:16:41.999Z</time></trkpt><trkpt lat="45.3283363" lon="8.8249175"><ele>113.0</ele><time>2026-04-18T14:16:42.999Z</time></trkpt><trkpt lat="45.3283089" lon="8.8247534"><ele>113.0</ele><time>2026-04-18T14:16:44.998Z</time></trkpt><trkpt lat="45.3282828" lon="8.8246135"><ele>112.66666666666666</ele><time>2026-04-18T14:16:46.999Z</time></trkpt><trkpt lat="45.3282646" lon="8.8244909"><ele>112.33333333333333</ele><time>2026-04-18T14:16:48.999Z</time></trkpt><trkpt lat="45.3282857" lon="8.8243891"><ele>112.0</ele><time>2026-04-18T14:16:50.999Z</time></trkpt><trkpt lat="45.3283543" lon="8.8243339"><ele>111.66666666666666</ele><time>2026-04-18T14:16:52.999Z</time></trkpt><trkpt lat="45.3284512" lon="8.824275"><ele>111.33333333333333</ele><time>2026-04-18T14:16:54.998Z</time></trkpt><trkpt lat="45.3285086" lon="8.824238"><ele>111.0</ele><time>2026-04-18T14:16:55.998Z</time></trkpt><trkpt lat="45.3285734" lon="8.8241931"><ele>110.83333333333333</ele><time>2026-04-18T14:16:56.998Z</time></trkpt><trkpt lat="45.3286423" lon="8.8241373"><ele>110.66666666666666</ele><time>2026-04-18T14:16:57.998Z</time></trkpt><trkpt lat="45.3287113" lon="8.8240832"><ele>110.5</ele><time>2026-04-18T14:16:58.998Z</time></trkpt><trkpt lat="45.3287819" lon="8.8240337"><ele>110.33333333333333</ele><time>2026-04-18T14:16:59.998Z</time></trkpt><trkpt lat="45.328854" lon="8.8239788"><ele>110.16666666666666</ele><time>2026-04-18T14:17:00.999Z</time></trkpt><trkpt lat="45.3289314" lon="8.8239269"><ele>110.0</ele><time>2026-04-18T14:17:01.999Z</time></trkpt><trkpt lat="45.3290112" lon="8.823875"><ele>110.0</ele><time>2026-04-18T14:17:02.998Z</time></trkpt><trkpt lat="45.3290911" lon="8.8238233"><ele>110.0</ele><time>2026-04-18T14:17:03.999Z</time></trkpt><trkpt lat="45.3291778" lon="8.8237679"><ele>110.0</ele><time>2026-04-18T14:17:04.998Z</time></trkpt><trkpt lat="45.3292699" lon="8.8237177"><ele>110.0</ele><time>2026-04-18T14:17:05.998Z</time></trkpt><trkpt lat="45.3293679" lon="8.8236613"><ele>110.0</ele><time>2026-04-18T14:17:06.999Z</time></trkpt><trkpt lat="45.3294702" lon="8.8236127"><ele>110.0</ele><time>2026-04-18T14:17:07.999Z</time></trkpt><trkpt lat="45.3295781" lon="8.8235661"><ele>110.0</ele><time>2026-04-18T14:17:08.998Z</time></trkpt><trkpt lat="45.3296895" lon="8.8235252"><ele>110.0</ele><time>2026-04-18T14:17:09.999Z</time></trkpt><trkpt lat="45.3297951" lon="8.8234832"><ele>110.0</ele><time>2026-04-18T14:17:10.999Z</time></trkpt><trkpt lat="45.3299028" lon="8.8234351"><ele>110.2</ele><time>2026-04-18T14:17:11.998Z</time></trkpt><trkpt lat="45.3300118" lon="8.8233904"><ele>110.4</ele><time>2026-04-18T14:17:12.999Z</time></trkpt><trkpt lat="45.3301194" lon="8.823343"><ele>110.6</ele><time>2026-04-18T14:17:13.999Z</time></trkpt><trkpt lat="45.3302211" lon="8.8232931"><ele>110.8</ele><time>2026-04-18T14:17:14.999Z</time></trkpt><trkpt lat="45.3303169" lon="8.823243"><ele>111.0</ele><time>2026-04-18T14:17:15.998Z</time></trkpt><trkpt lat="45.3304171" lon="8.8231889"><ele>111.0</ele><time>2026-04-18T14:17:16.999Z</time></trkpt><trkpt lat="45.330521" lon="8.8231342"><ele>111.0</ele><time>2026-04-18T14:17:17.998Z</time></trkpt><trkpt lat="45.3306281" lon="8.8230739"><ele>111.0</ele><time>2026-04-18T14:17:18.999Z</time></trkpt><trkpt lat="45.3307358" lon="8.8230126"><ele>111.0</ele><time>2026-04-18T14:17:19.999Z</time></trkpt><trkpt lat="45.330836" lon="8.8229552"><ele>111.6</ele><time>2026-04-18T14:17:20.999Z</time></trkpt><trkpt lat="45.3309298" lon="8.8229033"><ele>112.19999999999999</ele><time>2026-04-18T14:17:21.999Z</time></trkpt><trkpt lat="45.3310221" lon="8.8228555"><ele>112.80000000000001</ele><time>2026-04-18T14:17:22.999Z</time></trkpt><trkpt lat="45.3311151" lon="8.8228059"><ele>113.4</ele><time>2026-04-18T14:17:23.999Z</time></trkpt><trkpt lat="45.331207" lon="8.8227514"><ele>114.0</ele><time>2026-04-18T14:17:24.999Z</time></trkpt><trkpt lat="45.3312963" lon="8.8226982"><ele>113.66666666666667</ele><time>2026-04-18T14:17:25.999Z</time></trkpt><trkpt lat="45.3313831" lon="8.8226443"><ele>113.33333333333334</ele><time>2026-04-18T14:17:26.999Z</time></trkpt><trkpt lat="45.3314694" lon="8.8225954"><ele>113.0</ele><time>2026-04-18T14:17:27.998Z</time></trkpt><trkpt lat="45.3315483" lon="8.822547"><ele>112.66666666666667</ele><time>2026-04-18T14:17:28.999Z</time></trkpt><trkpt lat="45.3316199" lon="8.8225003"><ele>112.33333333333334</ele><time>2026-04-18T14:17:29.998Z</time></trkpt><trkpt lat="45.3316858" lon="8.8224592"><ele>112.0</ele><time>2026-04-18T14:17:30.999Z</time></trkpt><trkpt lat="45.3317879" lon="8.8223993"><ele>112.0</ele><time>2026-04-18T14:17:32.999Z</time></trkpt><trkpt lat="45.3318713" lon="8.8223874"><ele>112.0</ele><time>2026-04-18T14:17:34.999Z</time></trkpt><trkpt lat="45.3319319" lon="8.8224562"><ele>112.0</ele><time>2026-04-18T14:17:36.999Z</time></trkpt><trkpt lat="45.3319756" lon="8.8225567"><ele>112.0</ele><time>2026-04-18T14:17:38.998Z</time></trkpt><trkpt lat="45.3320118" lon="8.8226305"><ele>112.0</ele><time>2026-04-18T14:17:40.998Z</time></trkpt><trkpt lat="45.3320762" lon="8.8226282"><ele>112.0</ele><time>2026-04-18T14:17:43.999Z</time></trkpt><trkpt lat="45.3321218" lon="8.8225635"><ele>112.0</ele><time>2026-04-18T14:17:46.999Z</time></trkpt><trkpt lat="45.3321774" lon="8.8225073"><ele>111.66666666666667</ele><time>2026-04-18T14:17:49.999Z</time></trkpt><trkpt lat="45.3322419" lon="8.8225861"><ele>111.33333333333334</ele><time>2026-04-18T14:17:52.999Z</time></trkpt><trkpt lat="45.3322948" lon="8.822669"><ele>111.0</ele><time>2026-04-18T14:17:54.998Z</time></trkpt><trkpt lat="45.332367" lon="8.8227562"><ele>110.66666666666666</ele><time>2026-04-18T14:17:56.999Z</time></trkpt><trkpt lat="45.3324429" lon="8.8227933"><ele>110.33333333333333</ele><time>2026-04-18T14:17:58.999Z</time></trkpt><trkpt lat="45.3325195" lon="8.8227746"><ele>110.0</ele><time>2026-04-18T14:18:00.999Z</time></trkpt><trkpt lat="45.3326043" lon="8.8227279"><ele>110.0</ele><time>2026-04-18T14:18:02.999Z</time></trkpt><trkpt lat="45.3326938" lon="8.8226574"><ele>110.0</ele><time>2026-04-18T14:18:04.998Z</time></trkpt><trkpt lat="45.3327841" lon="8.8225979"><ele>110.0</ele><time>2026-04-18T14:18:06.998Z</time></trkpt><trkpt lat="45.3328754" lon="8.8225468"><ele>110.0</ele><time>2026-04-18T14:18:08.999Z</time></trkpt><trkpt lat="45.332979" lon="8.8224949"><ele>110.0</ele><time>2026-04-18T14:18:10.998Z</time></trkpt><trkpt lat="45.3330924" lon="8.8224471"><ele>109.99999999999999</ele><time>2026-04-18T14:18:12.999Z</time></trkpt><trkpt lat="45.3331554" lon="8.822423"><ele>110.0</ele><time>2026-04-18T14:18:13.998Z</time></trkpt><trkpt lat="45.3332209" lon="8.822402"><ele>110.0</ele><time>2026-04-18T14:18:14.999Z</time></trkpt><trkpt lat="45.3332891" lon="8.8223848"><ele>110.0</ele><time>2026-04-18T14:18:15.999Z</time></trkpt><trkpt lat="45.333354" lon="8.8223664"><ele>110.0</ele><time>2026-04-18T14:18:16.999Z</time></trkpt><trkpt lat="45.3334193" lon="8.822349"><ele>109.99999999999999</ele><time>2026-04-18T14:18:17.998Z</time></trkpt><trkpt lat="45.3334879" lon="8.8223318"><ele>110.0</ele><time>2026-04-18T14:18:18.998Z</time></trkpt><trkpt lat="45.3335602" lon="8.8223198"><ele>109.99999999999999</ele><time>2026-04-18T14:18:19.999Z</time></trkpt><trkpt lat="45.3336346" lon="8.8223032"><ele>110.0</ele><time>2026-04-18T14:18:20.999Z</time></trkpt><trkpt lat="45.3337061" lon="8.8222943"><ele>110.0</ele><time>2026-04-18T14:18:21.999Z</time></trkpt><trkpt lat="45.333773" lon="8.8222787"><ele>110.0</ele><time>2026-04-18T14:18:22.999Z</time></trkpt><trkpt lat="45.3338384" lon="8.8222617"><ele>109.99999999999999</ele><time>2026-04-18T14:18:23.998Z</time></trkpt><trkpt lat="45.3339609" lon="8.8222344"><ele>110.0</ele><time>2026-04-18T14:18:25.999Z</time></trkpt><trkpt lat="45.3340274" lon="8.8222193"><ele>110.33333333333333</ele><time>2026-04-18T14:18:26.999Z</time></trkpt><trkpt lat="45.3341018" lon="8.822202"><ele>110.66666666666666</ele><time>2026-04-18T14:18:27.999Z</time></trkpt><trkpt lat="45.3341779" lon="8.8221875"><ele>111.0</ele><time>2026-04-18T14:18:28.998Z</time></trkpt><trkpt lat="45.3342517" lon="8.8221676"><ele>111.33333333333334</ele><time>2026-04-18T14:18:29.999Z</time></trkpt><trkpt lat="45.3343253" lon="8.822153"><ele>111.66666666666667</ele><time>2026-04-18T14:18:30.999Z</time></trkpt><trkpt lat="45.3343989" lon="8.8221384"><ele>112.0</ele><time>2026-04-18T14:18:31.998Z</time></trkpt><trkpt lat="45.3344723" lon="8.8221248"><ele>112.0</ele><time>2026-04-18T14:18:32.999Z</time></trkpt><trkpt lat="45.3345431" lon="8.8221129"><ele>112.0</ele><time>2026-04-18T14:18:33.998Z</time></trkpt><trkpt lat="45.3346124" lon="8.8220999"><ele>112.0</ele><time>2026-04-18T14:18:34.999Z</time></trkpt><trkpt lat="45.3346776" lon="8.8220827"><ele>112.0</ele><time>2026-04-18T14:18:35.998Z</time></trkpt><trkpt lat="45.3347416" lon="8.8220693"><ele>112.0</ele><time>2026-04-18T14:18:36.998Z</time></trkpt><trkpt lat="45.3348052" lon="8.8220563"><ele>112.0</ele><time>2026-04-18T14:18:37.999Z</time></trkpt><trkpt lat="45.3348723" lon="8.8220423"><ele>112.0</ele><time>2026-04-18T14:18:38.999Z</time></trkpt><trkpt lat="45.3349372" lon="8.8220299"><ele>111.66666666666667</ele><time>2026-04-18T14:18:39.998Z</time></trkpt><trkpt lat="45.3350059" lon="8.8220155"><ele>111.33333333333334</ele><time>2026-04-18T14:18:40.998Z</time></trkpt><trkpt lat="45.3350801" lon="8.8220005"><ele>111.0</ele><time>2026-04-18T14:18:41.999Z</time></trkpt><trkpt lat="45.3351617" lon="8.8219824"><ele>110.66666666666666</ele><time>2026-04-18T14:18:42.999Z</time></trkpt><trkpt lat="45.3352429" lon="8.8219665"><ele>110.33333333333333</ele><time>2026-04-18T14:18:43.998Z</time></trkpt><trkpt lat="45.3353255" lon="8.8219547"><ele>110.0</ele><time>2026-04-18T14:18:44.998Z</time></trkpt><trkpt lat="45.335405" lon="8.8219393"><ele>109.99999999999999</ele><time>2026-04-18T14:18:45.999Z</time></trkpt><trkpt lat="45.335485" lon="8.8219211"><ele>110.0</ele><time>2026-04-18T14:18:46.999Z</time></trkpt><trkpt lat="45.3355675" lon="8.8219032"><ele>110.0</ele><time>2026-04-18T14:18:47.999Z</time></trkpt><trkpt lat="45.3356454" lon="8.8218894"><ele>110.0</ele><time>2026-04-18T14:18:48.999Z</time></trkpt><trkpt lat="45.3357256" lon="8.8218694"><ele>109.99999999999999</ele><time>2026-04-18T14:18:49.999Z</time></trkpt><trkpt lat="45.3358095" lon="8.8218477"><ele>110.0</ele><time>2026-04-18T14:18:50.999Z</time></trkpt><trkpt lat="45.3358929" lon="8.8218339"><ele>110.16666666666666</ele><time>2026-04-18T14:18:51.999Z</time></trkpt><trkpt lat="45.3359777" lon="8.821815"><ele>110.33333333333333</ele><time>2026-04-18T14:18:52.998Z</time></trkpt><trkpt lat="45.3360636" lon="8.8217934"><ele>110.5</ele><time>2026-04-18T14:18:53.999Z</time></trkpt><trkpt lat="45.3361487" lon="8.8217758"><ele>110.66666666666666</ele><time>2026-04-18T14:18:54.999Z</time></trkpt><trkpt lat="45.3362255" lon="8.8217636"><ele>110.83333333333333</ele><time>2026-04-18T14:18:55.998Z</time></trkpt><trkpt lat="45.3363043" lon="8.8217461"><ele>111.0</ele><time>2026-04-18T14:18:56.999Z</time></trkpt><trkpt lat="45.3363818" lon="8.8217262"><ele>110.85714285714285</ele><time>2026-04-18T14:18:57.999Z</time></trkpt><trkpt lat="45.3364545" lon="8.8217084"><ele>110.71428571428572</ele><time>2026-04-18T14:18:58.999Z</time></trkpt><trkpt lat="45.3365245" lon="8.8216906"><ele>110.57142857142857</ele><time>2026-04-18T14:18:59.999Z</time></trkpt><trkpt lat="45.3365914" lon="8.8216809"><ele>110.42857142857142</ele><time>2026-04-18T14:19:00.999Z</time></trkpt><trkpt lat="45.3366596" lon="8.8216677"><ele>110.28571428571428</ele><time>2026-04-18T14:19:01.999Z</time></trkpt><trkpt lat="45.3367307" lon="8.8216594"><ele>110.14285714285714</ele><time>2026-04-18T14:19:02.999Z</time></trkpt><trkpt lat="45.3368025" lon="8.8216521"><ele>110.0</ele><time>2026-04-18T14:19:03.999Z</time></trkpt><trkpt lat="45.3369293" lon="8.8216553"><ele>109.99999999999999</ele><time>2026-04-18T14:19:05.999Z</time></trkpt><trkpt lat="45.3369973" lon="8.821665"><ele>110.0</ele><time>2026-04-18T14:19:06.999Z</time></trkpt><trkpt lat="45.3371144" lon="8.8216998"><ele>110.0</ele><time>2026-04-18T14:19:08.998Z</time></trkpt><trkpt lat="45.3372086" lon="8.8217321"><ele>110.0</ele><time>2026-04-18T14:19:10.999Z</time></trkpt><trkpt lat="45.3372846" lon="8.8217349"><ele>109.99999999999999</ele><time>2026-04-18T14:19:12.999Z</time></trkpt><trkpt lat="45.3373584" lon="8.8217596"><ele>110.0</ele><time>2026-04-18T14:19:14.998Z</time></trkpt><trkpt lat="45.337438" lon="8.8218247"><ele>110.16666666666666</ele><time>2026-04-18T14:19:16.999Z</time></trkpt><trkpt lat="45.3375334" lon="8.8218895"><ele>110.33333333333333</ele><time>2026-04-18T14:19:18.999Z</time></trkpt><trkpt lat="45.3376564" lon="8.821915"><ele>110.5</ele><time>2026-04-18T14:19:20.998Z</time></trkpt><trkpt lat="45.337722" lon="8.8219205"><ele>110.66666666666666</ele><time>2026-04-18T14:19:21.999Z</time></trkpt><trkpt lat="45.3377918" lon="8.8219165"><ele>110.83333333333333</ele><time>2026-04-18T14:19:22.999Z</time></trkpt><trkpt lat="45.3378655" lon="8.8219005"><ele>111.0</ele><time>2026-04-18T14:19:23.998Z</time></trkpt><trkpt lat="45.3379409" lon="8.8218826"><ele>111.0</ele><time>2026-04-18T14:19:24.999Z</time></trkpt><trkpt lat="45.3380148" lon="8.8218587"><ele>111.0</ele><time>2026-04-18T14:19:25.999Z</time></trkpt><trkpt lat="45.3380893" lon="8.8218325"><ele>111.0</ele><time>2026-04-18T14:19:26.999Z</time></trkpt><trkpt lat="45.3381638" lon="8.8218036"><ele>111.0</ele><time>2026-04-18T14:19:27.999Z</time></trkpt><trkpt lat="45.338245" lon="8.8217698"><ele>111.0</ele><time>2026-04-18T14:19:28.999Z</time></trkpt><trkpt lat="45.3383174" lon="8.8217403"><ele>111.0</ele><time>2026-04-18T14:19:29.998Z</time></trkpt><trkpt lat="45.3383944" lon="8.8217073"><ele>111.0</ele><time>2026-04-18T14:19:30.999Z</time></trkpt><trkpt lat="45.338476" lon="8.8216768"><ele>111.0</ele><time>2026-04-18T14:19:31.999Z</time></trkpt><trkpt lat="45.3385496" lon="8.8216494"><ele>111.0</ele><time>2026-04-18T14:19:32.999Z</time></trkpt><trkpt lat="45.3386206" lon="8.8216195"><ele>111.0</ele><time>2026-04-18T14:19:33.998Z</time></trkpt><trkpt lat="45.3386903" lon="8.8215896"><ele>111.0</ele><time>2026-04-18T14:19:34.999Z</time></trkpt><trkpt lat="45.3387624" lon="8.8215612"><ele>111.0</ele><time>2026-04-18T14:19:35.999Z</time></trkpt><trkpt lat="45.338836" lon="8.8215331"><ele>111.0</ele><time>2026-04-18T14:19:36.998Z</time></trkpt><trkpt lat="45.3389125" lon="8.8215097"><ele>111.0</ele><time>2026-04-18T14:19:37.999Z</time></trkpt><trkpt lat="45.3389922" lon="8.8214802"><ele>111.0</ele><time>2026-04-18T14:19:38.999Z</time></trkpt><trkpt lat="45.3390749" lon="8.821455"><ele>111.0</ele><time>2026-04-18T14:19:39.998Z</time></trkpt><trkpt lat="45.3391549" lon="8.8214282"><ele>111.0</ele><time>2026-04-18T14:19:40.999Z</time></trkpt><trkpt lat="45.3392343" lon="8.8213932"><ele>111.0</ele><time>2026-04-18T14:19:41.999Z</time></trkpt><trkpt lat="45.3393125" lon="8.8213581"><ele>111.0</ele><time>2026-04-18T14:19:42.998Z</time></trkpt><trkpt lat="45.3393924" lon="8.8213238"><ele>111.0</ele><time>2026-04-18T14:19:43.999Z</time></trkpt><trkpt lat="45.3394725" lon="8.8212836"><ele>111.0</ele><time>2026-04-18T14:19:44.999Z</time></trkpt><trkpt lat="45.3395575" lon="8.8212493"><ele>111.0</ele><time>2026-04-18T14:19:45.999Z</time></trkpt><trkpt lat="45.3396374" lon="8.8212087"><ele>111.0</ele><time>2026-04-18T14:19:46.999Z</time></trkpt><trkpt lat="45.3397154" lon="8.8211664"><ele>111.0</ele><time>2026-04-18T14:19:47.999Z</time></trkpt><trkpt lat="45.3397996" lon="8.821119"><ele>111.19999999999999</ele><time>2026-04-18T14:19:48.999Z</time></trkpt><trkpt lat="45.3398876" lon="8.8210629"><ele>111.39999999999999</ele><time>2026-04-18T14:19:49.999Z</time></trkpt><trkpt lat="45.3399784" lon="8.8210101"><ele>111.6</ele><time>2026-04-18T14:19:50.998Z</time></trkpt><trkpt lat="45.3400715" lon="8.8209575"><ele>111.8</ele><time>2026-04-18T14:19:51.999Z</time></trkpt><trkpt lat="45.3401636" lon="8.820903"><ele>112.0</ele><time>2026-04-18T14:19:52.999Z</time></trkpt><trkpt lat="45.3402551" lon="8.820844"><ele>112.0</ele><time>2026-04-18T14:19:53.998Z</time></trkpt><trkpt lat="45.3403438" lon="8.8207854"><ele>111.99999999999999</ele><time>2026-04-18T14:19:54.999Z</time></trkpt><trkpt lat="45.3404312" lon="8.8207222"><ele>111.99999999999999</ele><time>2026-04-18T14:19:55.998Z</time></trkpt><trkpt lat="45.3405105" lon="8.8206627"><ele>112.0</ele><time>2026-04-18T14:19:56.999Z</time></trkpt><trkpt lat="45.3405906" lon="8.8206083"><ele>112.0</ele><time>2026-04-18T14:19:57.998Z</time></trkpt><trkpt lat="45.3406686" lon="8.820548"><ele>112.16666666666667</ele><time>2026-04-18T14:19:58.999Z</time></trkpt><trkpt lat="45.3407485" lon="8.8204857"><ele>112.33333333333334</ele><time>2026-04-18T14:19:59.999Z</time></trkpt><trkpt lat="45.340829" lon="8.8204179"><ele>112.5</ele><time>2026-04-18T14:20:00.998Z</time></trkpt><trkpt lat="45.3409078" lon="8.8203515"><ele>112.66666666666666</ele><time>2026-04-18T14:20:01.999Z</time></trkpt><trkpt lat="45.3409844" lon="8.8202892"><ele>112.83333333333333</ele><time>2026-04-18T14:20:02.999Z</time></trkpt><trkpt lat="45.3410544" lon="8.8202293"><ele>113.0</ele><time>2026-04-18T14:20:03.998Z</time></trkpt><trkpt lat="45.3411206" lon="8.8201677"><ele>113.0</ele><time>2026-04-18T14:20:04.999Z</time></trkpt><trkpt lat="45.3411871" lon="8.8201067"><ele>113.0</ele><time>2026-04-18T14:20:05.998Z</time></trkpt><trkpt lat="45.341247" lon="8.8200528"><ele>113.0</ele><time>2026-04-18T14:20:06.999Z</time></trkpt><trkpt lat="45.3413095" lon="8.8199956"><ele>113.0</ele><time>2026-04-18T14:20:07.999Z</time></trkpt><trkpt lat="45.3413722" lon="8.8199337"><ele>113.0</ele><time>2026-04-18T14:20:08.999Z</time></trkpt><trkpt lat="45.3414334" lon="8.819876"><ele>113.0</ele><time>2026-04-18T14:20:09.998Z</time></trkpt><trkpt lat="45.3414843" lon="8.8198219"><ele>113.0</ele><time>2026-04-18T14:20:10.998Z</time></trkpt><trkpt lat="45.3415692" lon="8.8197258"><ele>113.0</ele><time>2026-04-18T14:20:12.999Z</time></trkpt><trkpt lat="45.3416586" lon="8.8196255"><ele>113.0</ele><time>2026-04-18T14:20:14.999Z</time></trkpt><trkpt lat="45.3417525" lon="8.8195202"><ele>113.0</ele><time>2026-04-18T14:20:16.998Z</time></trkpt><trkpt lat="45.3418489" lon="8.8194136"><ele>113.0</ele><time>2026-04-18T14:20:18.999Z</time></trkpt><trkpt lat="45.3419413" lon="8.8193165"><ele>113.2</ele><time>2026-04-18T14:20:20.999Z</time></trkpt><trkpt lat="45.3420388" lon="8.819222"><ele>113.4</ele><time>2026-04-18T14:20:22.999Z</time></trkpt><trkpt lat="45.3421265" lon="8.8191364"><ele>113.60000000000001</ele><time>2026-04-18T14:20:24.999Z</time></trkpt><trkpt lat="45.3421998" lon="8.8190492"><ele>113.80000000000001</ele><time>2026-04-18T14:20:26.999Z</time></trkpt><trkpt lat="45.3422606" lon="8.8189872"><ele>114.0</ele><time>2026-04-18T14:20:28.999Z</time></trkpt><trkpt lat="45.3423346" lon="8.8189316"><ele>114.0</ele><time>2026-04-18T14:20:49.998Z</time></trkpt><trkpt lat="45.3424059" lon="8.818857"><ele>114.0</ele><time>2026-04-18T14:20:51.999Z</time></trkpt><trkpt lat="45.3424885" lon="8.81877"><ele>114.0</ele><time>2026-04-18T14:20:53.999Z</time></trkpt><trkpt lat="45.3425697" lon="8.8186795"><ele>114.0</ele><time>2026-04-18T14:20:55.999Z</time></trkpt><trkpt lat="45.3426542" lon="8.8185841"><ele>114.0</ele><time>2026-04-18T14:20:57.999Z</time></trkpt><trkpt lat="45.3427491" lon="8.8184838"><ele>113.80000000000001</ele><time>2026-04-18T14:20:59.999Z</time></trkpt><trkpt lat="45.342848" lon="8.8183771"><ele>113.60000000000001</ele><time>2026-04-18T14:21:01.999Z</time></trkpt><trkpt lat="45.3429005" lon="8.8183229"><ele>113.4</ele><time>2026-04-18T14:21:02.999Z</time></trkpt><trkpt lat="45.3429992" lon="8.8182153"><ele>113.2</ele><time>2026-04-18T14:21:04.999Z</time></trkpt><trkpt lat="45.3430938" lon="8.8181103"><ele>113.0</ele><time>2026-04-18T14:21:06.999Z</time></trkpt><trkpt lat="45.3431812" lon="8.8180159"><ele>112.75</ele><time>2026-04-18T14:21:08.999Z</time></trkpt><trkpt lat="45.3432568" lon="8.8179342"><ele>112.5</ele><time>2026-04-18T14:21:10.998Z</time></trkpt><trkpt lat="45.3433431" lon="8.8178405"><ele>112.25</ele><time>2026-04-18T14:21:12.999Z</time></trkpt><trkpt lat="45.3434388" lon="8.8177331"><ele>112.0</ele><time>2026-04-18T14:21:14.998Z</time></trkpt><trkpt lat="45.3435384" lon="8.8176245"><ele>112.0</ele><time>2026-04-18T14:21:16.999Z</time></trkpt><trkpt lat="45.3436292" lon="8.8175331"><ele>111.99999999999999</ele><time>2026-04-18T14:21:18.999Z</time></trkpt><trkpt lat="45.3436875" lon="8.8174682"><ele>111.99999999999999</ele><time>2026-04-18T14:21:20.999Z</time></trkpt><trkpt lat="45.343775" lon="8.8173677"><ele>112.0</ele><time>2026-04-18T14:22:09.998Z</time></trkpt><trkpt lat="45.343865" lon="8.8172726"><ele>112.0</ele><time>2026-04-18T14:22:11.999Z</time></trkpt><trkpt lat="45.3439177" lon="8.8172189"><ele>112.16666666666667</ele><time>2026-04-18T14:22:12.998Z</time></trkpt><trkpt lat="45.3439745" lon="8.8171575"><ele>112.33333333333334</ele><time>2026-04-18T14:22:13.999Z</time></trkpt><trkpt lat="45.3440315" lon="8.8170982"><ele>112.5</ele><time>2026-04-18T14:22:14.999Z</time></trkpt><trkpt lat="45.3440883" lon="8.8170378"><ele>112.66666666666666</ele><time>2026-04-18T14:22:15.998Z</time></trkpt><trkpt lat="45.3441513" lon="8.8169698"><ele>112.83333333333333</ele><time>2026-04-18T14:22:16.998Z</time></trkpt><trkpt lat="45.3442211" lon="8.8168941"><ele>113.0</ele><time>2026-04-18T14:22:17.999Z</time></trkpt><trkpt lat="45.3442909" lon="8.8168177"><ele>113.0</ele><time>2026-04-18T14:22:18.999Z</time></trkpt><trkpt lat="45.3443543" lon="8.8167495"><ele>113.0</ele><time>2026-04-18T14:22:19.999Z</time></trkpt><trkpt lat="45.3444139" lon="8.8166865"><ele>113.0</ele><time>2026-04-18T14:22:20.999Z</time></trkpt><trkpt lat="45.3444685" lon="8.8166238"><ele>113.0</ele><time>2026-04-18T14:22:21.999Z</time></trkpt><trkpt lat="45.3445241" lon="8.8165692"><ele>113.0</ele><time>2026-04-18T14:22:22.998Z</time></trkpt><trkpt lat="45.344578" lon="8.81651"><ele>113.0</ele><time>2026-04-18T14:22:23.998Z</time></trkpt><trkpt lat="45.3446312" lon="8.8164529"><ele>113.0</ele><time>2026-04-18T14:22:24.999Z</time></trkpt><trkpt lat="45.3446841" lon="8.8163952"><ele>112.83333333333333</ele><time>2026-04-18T14:22:25.999Z</time></trkpt><trkpt lat="45.3447382" lon="8.8163365"><ele>112.66666666666666</ele><time>2026-04-18T14:22:26.999Z</time></trkpt><trkpt lat="45.3447876" lon="8.8162784"><ele>112.5</ele><time>2026-04-18T14:22:27.998Z</time></trkpt><trkpt lat="45.3448859" lon="8.8161642"><ele>112.33333333333334</ele><time>2026-04-18T14:22:29.999Z</time></trkpt><trkpt lat="45.344944" lon="8.8161053"><ele>112.16666666666667</ele><time>2026-04-18T14:22:30.999Z</time></trkpt><trkpt lat="45.3450031" lon="8.8160415"><ele>112.0</ele><time>2026-04-18T14:22:31.998Z</time></trkpt><trkpt lat="45.3450656" lon="8.8159779"><ele>111.83333333333334</ele><time>2026-04-18T14:22:32.999Z</time></trkpt><trkpt lat="45.3451247" lon="8.8159125"><ele>111.66666666666667</ele><time>2026-04-18T14:22:33.999Z</time></trkpt><trkpt lat="45.3451842" lon="8.8158502"><ele>111.5</ele><time>2026-04-18T14:22:34.998Z</time></trkpt><trkpt lat="45.3452438" lon="8.8157835"><ele>111.33333333333334</ele><time>2026-04-18T14:22:35.998Z</time></trkpt><trkpt lat="45.3453059" lon="8.8157113"><ele>111.16666666666667</ele><time>2026-04-18T14:22:36.999Z</time></trkpt><trkpt lat="45.3453708" lon="8.8156413"><ele>111.0</ele><time>2026-04-18T14:22:37.999Z</time></trkpt><trkpt lat="45.3454333" lon="8.815568"><ele>111.0</ele><time>2026-04-18T14:22:38.998Z</time></trkpt><trkpt lat="45.3454958" lon="8.8154958"><ele>111.0</ele><time>2026-04-18T14:22:39.999Z</time></trkpt><trkpt lat="45.3455576" lon="8.8154274"><ele>111.0</ele><time>2026-04-18T14:22:40.999Z</time></trkpt><trkpt lat="45.3456199" lon="8.8153555"><ele>111.0</ele><time>2026-04-18T14:22:41.999Z</time></trkpt><trkpt lat="45.3456831" lon="8.8152906"><ele>111.0</ele><time>2026-04-18T14:22:42.998Z</time></trkpt><trkpt lat="45.3457418" lon="8.8152298"><ele>111.0</ele><time>2026-04-18T14:22:43.998Z</time></trkpt><trkpt lat="45.3458045" lon="8.8151648"><ele>111.33333333333333</ele><time>2026-04-18T14:22:44.999Z</time></trkpt><trkpt lat="45.3458672" lon="8.8150962"><ele>111.66666666666666</ele><time>2026-04-18T14:22:45.999Z</time></trkpt><trkpt lat="45.3459301" lon="8.8150305"><ele>112.0</ele><time>2026-04-18T14:22:46.998Z</time></trkpt><trkpt lat="45.3459935" lon="8.8149616"><ele>112.33333333333333</ele><time>2026-04-18T14:22:47.999Z</time></trkpt><trkpt lat="45.3460578" lon="8.8148919"><ele>112.66666666666666</ele><time>2026-04-18T14:22:48.999Z</time></trkpt><trkpt lat="45.3461189" lon="8.8148283"><ele>113.0</ele><time>2026-04-18T14:22:49.999Z</time></trkpt><trkpt lat="45.3461809" lon="8.8147618"><ele>112.99999999999999</ele><time>2026-04-18T14:22:50.999Z</time></trkpt><trkpt lat="45.346242" lon="8.8146963"><ele>113.0</ele><time>2026-04-18T14:22:51.999Z</time></trkpt><trkpt lat="45.3463067" lon="8.8146235"><ele>113.0</ele><time>2026-04-18T14:22:52.999Z</time></trkpt><trkpt lat="45.3463755" lon="8.8145477"><ele>113.0</ele><time>2026-04-18T14:22:53.999Z</time></trkpt><trkpt lat="45.3464423" lon="8.8144734"><ele>112.99999999999999</ele><time>2026-04-18T14:22:54.998Z</time></trkpt><trkpt lat="45.3465029" lon="8.8144118"><ele>113.0</ele><time>2026-04-18T14:22:55.999Z</time></trkpt><trkpt lat="45.3465673" lon="8.8143428"><ele>112.83333333333333</ele><time>2026-04-18T14:22:56.999Z</time></trkpt><trkpt lat="45.346634" lon="8.8142664"><ele>112.66666666666666</ele><time>2026-04-18T14:22:57.999Z</time></trkpt><trkpt lat="45.3466973" lon="8.8141911"><ele>112.5</ele><time>2026-04-18T14:22:58.999Z</time></trkpt><trkpt lat="45.3467622" lon="8.8141205"><ele>112.33333333333334</ele><time>2026-04-18T14:22:59.998Z</time></trkpt><trkpt lat="45.3468186" lon="8.8140597"><ele>112.16666666666667</ele><time>2026-04-18T14:23:00.998Z</time></trkpt><trkpt lat="45.3468734" lon="8.8140022"><ele>112.0</ele><time>2026-04-18T14:23:01.999Z</time></trkpt><trkpt lat="45.3469723" lon="8.8138979"><ele>112.00000000000001</ele><time>2026-04-18T14:23:03.999Z</time></trkpt><trkpt lat="45.3470325" lon="8.8138339"><ele>112.0</ele><time>2026-04-18T14:23:04.999Z</time></trkpt><trkpt lat="45.3470924" lon="8.8137777"><ele>112.0</ele><time>2026-04-18T14:23:05.999Z</time></trkpt><trkpt lat="45.3471551" lon="8.8137123"><ele>112.0</ele><time>2026-04-18T14:23:06.999Z</time></trkpt><trkpt lat="45.3472186" lon="8.8136476"><ele>112.00000000000001</ele><time>2026-04-18T14:23:07.999Z</time></trkpt><trkpt lat="45.3472879" lon="8.8135795"><ele>112.0</ele><time>2026-04-18T14:23:08.998Z</time></trkpt><trkpt lat="45.347356" lon="8.8135062"><ele>112.00000000000001</ele><time>2026-04-18T14:23:09.999Z</time></trkpt><trkpt lat="45.3474246" lon="8.8134307"><ele>112.0</ele><time>2026-04-18T14:23:10.998Z</time></trkpt><trkpt lat="45.3474903" lon="8.8133572"><ele>112.0</ele><time>2026-04-18T14:23:11.998Z</time></trkpt><trkpt lat="45.3475559" lon="8.813284"><ele>112.0</ele><time>2026-04-18T14:23:12.998Z</time></trkpt><trkpt lat="45.3476158" lon="8.8132206"><ele>112.00000000000001</ele><time>2026-04-18T14:23:13.999Z</time></trkpt><trkpt lat="45.347672" lon="8.8131602"><ele>112.0</ele><time>2026-04-18T14:23:14.999Z</time></trkpt><trkpt lat="45.3477286" lon="8.8130998"><ele>112.00000000000001</ele><time>2026-04-18T14:23:15.998Z</time></trkpt><trkpt lat="45.3478287" lon="8.8129917"><ele>112.0</ele><time>2026-04-18T14:23:17.999Z</time></trkpt><trkpt lat="45.3478792" lon="8.8129363"><ele>112.0</ele><time>2026-04-18T14:23:18.999Z</time></trkpt><trkpt lat="45.3479328" lon="8.8128812"><ele>112.0</ele><time>2026-04-18T14:23:19.999Z</time></trkpt><trkpt lat="45.3479879" lon="8.812826"><ele>112.00000000000001</ele><time>2026-04-18T14:23:20.999Z</time></trkpt><trkpt lat="45.3480398" lon="8.812773"><ele>112.0</ele><time>2026-04-18T14:23:21.998Z</time></trkpt><trkpt lat="45.3480924" lon="8.8127149"><ele>112.14285714285714</ele><time>2026-04-18T14:23:22.999Z</time></trkpt><trkpt lat="45.3481448" lon="8.812654"><ele>112.28571428571428</ele><time>2026-04-18T14:23:23.998Z</time></trkpt><trkpt lat="45.3482013" lon="8.8125945"><ele>112.42857142857143</ele><time>2026-04-18T14:23:24.999Z</time></trkpt><trkpt lat="45.3482539" lon="8.8125331"><ele>112.57142857142857</ele><time>2026-04-18T14:23:25.999Z</time></trkpt><trkpt lat="45.3483053" lon="8.8124721"><ele>112.71428571428571</ele><time>2026-04-18T14:23:26.999Z</time></trkpt><trkpt lat="45.3483588" lon="8.8124126"><ele>112.85714285714286</ele><time>2026-04-18T14:23:27.999Z</time></trkpt><trkpt lat="45.3484196" lon="8.8123455"><ele>113.0</ele><time>2026-04-18T14:23:28.998Z</time></trkpt><trkpt lat="45.3484847" lon="8.8122775"><ele>112.99999999999999</ele><time>2026-04-18T14:23:29.999Z</time></trkpt><trkpt lat="45.3485488" lon="8.8122079"><ele>113.0</ele><time>2026-04-18T14:23:30.998Z</time></trkpt><trkpt lat="45.3486115" lon="8.812138"><ele>113.0</ele><time>2026-04-18T14:23:31.998Z</time></trkpt><trkpt lat="45.3486727" lon="8.8120756"><ele>113.0</ele><time>2026-04-18T14:23:32.999Z</time></trkpt><trkpt lat="45.3487355" lon="8.8120033"><ele>112.99999999999999</ele><time>2026-04-18T14:23:33.999Z</time></trkpt><trkpt lat="45.3487999" lon="8.8119382"><ele>113.0</ele><time>2026-04-18T14:23:34.998Z</time></trkpt><trkpt lat="45.3488643" lon="8.8118651"><ele>113.0</ele><time>2026-04-18T14:23:35.998Z</time></trkpt><trkpt lat="45.3489254" lon="8.8118008"><ele>113.0</ele><time>2026-04-18T14:23:36.999Z</time></trkpt><trkpt lat="45.3489889" lon="8.8117388"><ele>113.0</ele><time>2026-04-18T14:23:37.998Z</time></trkpt><trkpt lat="45.3490466" lon="8.811677"><ele>113.0</ele><time>2026-04-18T14:23:38.999Z</time></trkpt><trkpt lat="45.3491029" lon="8.8116137"><ele>113.0</ele><time>2026-04-18T14:23:39.998Z</time></trkpt><trkpt lat="45.3491634" lon="8.8115471"><ele>113.0</ele><time>2026-04-18T14:23:40.999Z</time></trkpt><trkpt lat="45.34922" lon="8.8114752"><ele>113.0</ele><time>2026-04-18T14:23:41.999Z</time></trkpt><trkpt lat="45.3492846" lon="8.8114059"><ele>112.99999999999999</ele><time>2026-04-18T14:23:42.999Z</time></trkpt><trkpt lat="45.3493506" lon="8.8113351"><ele>113.0</ele><time>2026-04-18T14:23:43.998Z</time></trkpt><trkpt lat="45.349415" lon="8.8112688"><ele>113.0</ele><time>2026-04-18T14:23:44.999Z</time></trkpt><trkpt lat="45.3494751" lon="8.8112034"><ele>113.0</ele><time>2026-04-18T14:23:45.998Z</time></trkpt><trkpt lat="45.349537" lon="8.8111383"><ele>112.99999999999999</ele><time>2026-04-18T14:23:46.999Z</time></trkpt><trkpt lat="45.3495992" lon="8.8110704"><ele>113.0</ele><time>2026-04-18T14:23:47.998Z</time></trkpt><trkpt lat="45.3496551" lon="8.8110052"><ele>112.83333333333333</ele><time>2026-04-18T14:23:48.999Z</time></trkpt><trkpt lat="45.3497191" lon="8.8109441"><ele>112.66666666666666</ele><time>2026-04-18T14:23:49.999Z</time></trkpt><trkpt lat="45.3497811" lon="8.8108835"><ele>112.5</ele><time>2026-04-18T14:23:50.999Z</time></trkpt><trkpt lat="45.3498395" lon="8.8108239"><ele>112.33333333333334</ele><time>2026-04-18T14:23:51.999Z</time></trkpt><trkpt lat="45.3499005" lon="8.8107566"><ele>112.16666666666667</ele><time>2026-04-18T14:23:52.999Z</time></trkpt><trkpt lat="45.3499601" lon="8.8106884"><ele>112.0</ele><time>2026-04-18T14:23:53.999Z</time></trkpt><trkpt lat="45.3500188" lon="8.8106244"><ele>112.0</ele><time>2026-04-18T14:23:54.999Z</time></trkpt><trkpt lat="45.3500776" lon="8.8105603"><ele>112.0</ele><time>2026-04-18T14:23:55.999Z</time></trkpt><trkpt lat="45.3501373" lon="8.8104986"><ele>112.0</ele><time>2026-04-18T14:23:56.999Z</time></trkpt><trkpt lat="45.3501963" lon="8.8104363"><ele>112.0</ele><time>2026-04-18T14:23:57.999Z</time></trkpt><trkpt lat="45.3502561" lon="8.8103718"><ele>112.0</ele><time>2026-04-18T14:23:58.998Z</time></trkpt><trkpt lat="45.3503133" lon="8.8103098"><ele>112.0</ele><time>2026-04-18T14:23:59.999Z</time></trkpt><trkpt lat="45.3503675" lon="8.8102547"><ele>112.0</ele><time>2026-04-18T14:24:00.998Z</time></trkpt><trkpt lat="45.3504229" lon="8.8101927"><ele>112.00000000000001</ele><time>2026-04-18T14:24:01.999Z</time></trkpt><trkpt lat="45.3504813" lon="8.81013"><ele>112.0</ele><time>2026-04-18T14:24:02.999Z</time></trkpt><trkpt lat="45.35054" lon="8.8100657"><ele>112.0</ele><time>2026-04-18T14:24:03.998Z</time></trkpt><trkpt lat="45.3505977" lon="8.8099995"><ele>112.0</ele><time>2026-04-18T14:24:04.998Z</time></trkpt><trkpt lat="45.3506518" lon="8.8099407"><ele>112.00000000000001</ele><time>2026-04-18T14:24:05.998Z</time></trkpt><trkpt lat="45.3507359" lon="8.809847"><ele>112.0</ele><time>2026-04-18T14:24:07.998Z</time></trkpt><trkpt lat="45.350839" lon="8.8097416"><ele>111.8</ele><time>2026-04-18T14:26:28.999Z</time></trkpt><trkpt lat="45.3509349" lon="8.809653"><ele>111.6</ele><time>2026-04-18T14:26:30.999Z</time></trkpt><trkpt lat="45.3510353" lon="8.8095445"><ele>111.39999999999999</ele><time>2026-04-18T14:26:32.998Z</time></trkpt><trkpt lat="45.3510885" lon="8.8094844"><ele>111.19999999999999</ele><time>2026-04-18T14:26:33.999Z</time></trkpt><trkpt lat="45.3511482" lon="8.8094188"><ele>111.0</ele><time>2026-04-18T14:26:34.999Z</time></trkpt><trkpt lat="45.3512059" lon="8.809357"><ele>111.28571428571428</ele><time>2026-04-18T14:26:35.999Z</time></trkpt><trkpt lat="45.3512649" lon="8.8092871"><ele>111.57142857142858</ele><time>2026-04-18T14:26:36.998Z</time></trkpt><trkpt lat="45.3513155" lon="8.8092219"><ele>111.85714285714286</ele><time>2026-04-18T14:26:37.998Z</time></trkpt><trkpt lat="45.3513575" lon="8.809151"><ele>112.14285714285714</ele><time>2026-04-18T14:26:38.999Z</time></trkpt><trkpt lat="45.3513979" lon="8.8090774"><ele>112.42857142857142</ele><time>2026-04-18T14:26:39.999Z</time></trkpt><trkpt lat="45.3514488" lon="8.8090099"><ele>112.71428571428572</ele><time>2026-04-18T14:26:40.998Z</time></trkpt><trkpt lat="45.3515128" lon="8.8089493"><ele>113.0</ele><time>2026-04-18T14:26:41.998Z</time></trkpt><trkpt lat="45.3515766" lon="8.8088841"><ele>112.99999999999999</ele><time>2026-04-18T14:26:42.998Z</time></trkpt><trkpt lat="45.3516396" lon="8.8088247"><ele>113.0</ele><time>2026-04-18T14:26:43.999Z</time></trkpt><trkpt lat="45.351711" lon="8.8087635"><ele>113.0</ele><time>2026-04-18T14:26:44.998Z</time></trkpt><trkpt lat="45.3517802" lon="8.8086971"><ele>113.0</ele><time>2026-04-18T14:26:45.999Z</time></trkpt><trkpt lat="45.3518532" lon="8.8086331"><ele>112.99999999999999</ele><time>2026-04-18T14:26:46.998Z</time></trkpt><trkpt lat="45.3519273" lon="8.8085662"><ele>113.0</ele><time>2026-04-18T14:26:47.999Z</time></trkpt><trkpt lat="45.3520042" lon="8.8084942"><ele>113.0</ele><time>2026-04-18T14:26:48.998Z</time></trkpt><trkpt lat="45.3520813" lon="8.8084233"><ele>113.00000000000001</ele><time>2026-04-18T14:26:49.998Z</time></trkpt><trkpt lat="45.3521605" lon="8.8083389"><ele>113.00000000000001</ele><time>2026-04-18T14:26:50.999Z</time></trkpt><trkpt lat="45.3522437" lon="8.8082459"><ele>113.0</ele><time>2026-04-18T14:26:51.998Z</time></trkpt><trkpt lat="45.3523278" lon="8.8081519"><ele>113.0</ele><time>2026-04-18T14:26:52.999Z</time></trkpt><trkpt lat="45.3524158" lon="8.8080602"><ele>113.0</ele><time>2026-04-18T14:26:53.999Z</time></trkpt><trkpt lat="45.3525035" lon="8.807968"><ele>113.00000000000001</ele><time>2026-04-18T14:26:54.999Z</time></trkpt><trkpt lat="45.3525866" lon="8.8078755"><ele>113.00000000000001</ele><time>2026-04-18T14:26:55.999Z</time></trkpt><trkpt lat="45.3526717" lon="8.8077802"><ele>113.0</ele><time>2026-04-18T14:26:56.998Z</time></trkpt><trkpt lat="45.352761" lon="8.8076876"><ele>113.0</ele><time>2026-04-18T14:26:57.999Z</time></trkpt><trkpt lat="45.3528503" lon="8.8075893"><ele>113.2</ele><time>2026-04-18T14:26:58.998Z</time></trkpt><trkpt lat="45.3529395" lon="8.8074931"><ele>113.4</ele><time>2026-04-18T14:26:59.998Z</time></trkpt><trkpt lat="45.3530265" lon="8.8073991"><ele>113.60000000000001</ele><time>2026-04-18T14:27:00.999Z</time></trkpt><trkpt lat="45.3531048" lon="8.8073095"><ele>113.80000000000001</ele><time>2026-04-18T14:27:01.999Z</time></trkpt><trkpt lat="45.353181" lon="8.8072285"><ele>114.0</ele><time>2026-04-18T14:27:02.999Z</time></trkpt><trkpt lat="45.3532519" lon="8.8071538"><ele>114.0</ele><time>2026-04-18T14:27:03.999Z</time></trkpt><trkpt lat="45.3533184" lon="8.8070704"><ele>114.0</ele><time>2026-04-18T14:27:04.998Z</time></trkpt><trkpt lat="45.3533824" lon="8.8069938"><ele>114.0</ele><time>2026-04-18T14:27:05.999Z</time></trkpt><trkpt lat="45.3534521" lon="8.806924"><ele>114.0</ele><time>2026-04-18T14:27:06.999Z</time></trkpt><trkpt lat="45.3535175" lon="8.8068601"><ele>114.0</ele><time>2026-04-18T14:27:07.998Z</time></trkpt><trkpt lat="45.3535873" lon="8.8067884"><ele>114.0</ele><time>2026-04-18T14:27:08.999Z</time></trkpt><trkpt lat="45.3536633" lon="8.8067104"><ele>113.80000000000001</ele><time>2026-04-18T14:27:09.998Z</time></trkpt><trkpt lat="45.3537421" lon="8.8066283"><ele>113.60000000000001</ele><time>2026-04-18T14:27:10.999Z</time></trkpt><trkpt lat="45.3538212" lon="8.8065388"><ele>113.4</ele><time>2026-04-18T14:27:11.998Z</time></trkpt><trkpt lat="45.3539025" lon="8.806452"><ele>113.2</ele><time>2026-04-18T14:27:12.999Z</time></trkpt><trkpt lat="45.3539828" lon="8.8063644"><ele>113.0</ele><time>2026-04-18T14:27:13.999Z</time></trkpt><trkpt lat="45.3540542" lon="8.8062817"><ele>112.99999999999999</ele><time>2026-04-18T14:27:14.999Z</time></trkpt><trkpt lat="45.35412" lon="8.8062013"><ele>113.0</ele><time>2026-04-18T14:27:15.998Z</time></trkpt><trkpt lat="45.3541927" lon="8.806125"><ele>113.0</ele><time>2026-04-18T14:27:16.999Z</time></trkpt><trkpt lat="45.3542633" lon="8.8060485"><ele>113.0</ele><time>2026-04-18T14:27:17.999Z</time></trkpt><trkpt lat="45.3543318" lon="8.8059755"><ele>112.99999999999999</ele><time>2026-04-18T14:27:18.999Z</time></trkpt><trkpt lat="45.3544004" lon="8.805904"><ele>113.0</ele><time>2026-04-18T14:27:19.999Z</time></trkpt><trkpt lat="45.3544689" lon="8.80583"><ele>112.99999999999999</ele><time>2026-04-18T14:27:20.999Z</time></trkpt><trkpt lat="45.3545388" lon="8.8057553"><ele>113.0</ele><time>2026-04-18T14:27:21.999Z</time></trkpt><trkpt lat="45.3546038" lon="8.8056828"><ele>113.0</ele><time>2026-04-18T14:27:22.998Z</time></trkpt><trkpt lat="45.3546738" lon="8.8056123"><ele>113.0</ele><time>2026-04-18T14:27:23.998Z</time></trkpt><trkpt lat="45.3547457" lon="8.8055439"><ele>112.99999999999999</ele><time>2026-04-18T14:27:24.999Z</time></trkpt><trkpt lat="45.3548177" lon="8.8054751"><ele>113.0</ele><time>2026-04-18T14:27:25.999Z</time></trkpt><trkpt lat="45.3548836" lon="8.8054007"><ele>113.16666666666666</ele><time>2026-04-18T14:27:26.999Z</time></trkpt><trkpt lat="45.3549507" lon="8.8053238"><ele>113.33333333333333</ele><time>2026-04-18T14:27:27.998Z</time></trkpt><trkpt lat="45.3550183" lon="8.8052502"><ele>113.5</ele><time>2026-04-18T14:27:28.999Z</time></trkpt><trkpt lat="45.3550846" lon="8.8051763"><ele>113.66666666666666</ele><time>2026-04-18T14:27:29.999Z</time></trkpt><trkpt lat="45.3551507" lon="8.8050991"><ele>113.83333333333333</ele><time>2026-04-18T14:27:30.999Z</time></trkpt><trkpt lat="45.3552198" lon="8.8050162"><ele>114.0</ele><time>2026-04-18T14:27:31.998Z</time></trkpt><trkpt lat="45.3552928" lon="8.8049334"><ele>114.0</ele><time>2026-04-18T14:27:32.998Z</time></trkpt><trkpt lat="45.3553714" lon="8.8048502"><ele>114.0</ele><time>2026-04-18T14:27:33.999Z</time></trkpt><trkpt lat="45.3554499" lon="8.8047681"><ele>114.0</ele><time>2026-04-18T14:27:34.999Z</time></trkpt><trkpt lat="45.3555256" lon="8.8046835"><ele>114.0</ele><time>2026-04-18T14:27:35.999Z</time></trkpt><trkpt lat="45.3556012" lon="8.8045988"><ele>114.0</ele><time>2026-04-18T14:27:36.999Z</time></trkpt><trkpt lat="45.3556754" lon="8.8045162"><ele>113.66666666666667</ele><time>2026-04-18T14:27:37.999Z</time></trkpt><trkpt lat="45.3557485" lon="8.8044388"><ele>113.33333333333334</ele><time>2026-04-18T14:27:38.999Z</time></trkpt><trkpt lat="45.3558171" lon="8.8043643"><ele>113.0</ele><time>2026-04-18T14:27:39.999Z</time></trkpt><trkpt lat="45.3558887" lon="8.8042866"><ele>112.66666666666667</ele><time>2026-04-18T14:27:40.998Z</time></trkpt><trkpt lat="45.3559591" lon="8.8042145"><ele>112.33333333333334</ele><time>2026-04-18T14:27:41.998Z</time></trkpt><trkpt lat="45.3560305" lon="8.8041371"><ele>112.0</ele><time>2026-04-18T14:27:42.998Z</time></trkpt><trkpt lat="45.3561009" lon="8.8040685"><ele>112.00000000000001</ele><time>2026-04-18T14:27:43.999Z</time></trkpt><trkpt lat="45.3561712" lon="8.8039991"><ele>112.0</ele><time>2026-04-18T14:27:44.999Z</time></trkpt><trkpt lat="45.3562341" lon="8.8039338"><ele>112.0</ele><time>2026-04-18T14:27:45.999Z</time></trkpt><trkpt lat="45.356287" lon="8.8038712"><ele>112.0</ele><time>2026-04-18T14:27:46.999Z</time></trkpt><trkpt lat="45.3563571" lon="8.8037853"><ele>112.00000000000001</ele><time>2026-04-18T14:27:48.999Z</time></trkpt><trkpt lat="45.3563405" lon="8.803686"><ele>112.0</ele><time>2026-04-18T14:27:59.999Z</time></trkpt><trkpt lat="45.3562811" lon="8.8036403"><ele>112.00000000000001</ele><time>2026-04-18T14:28:01.999Z</time></trkpt><trkpt lat="45.3561943" lon="8.8035773"><ele>112.0</ele><time>2026-04-18T14:28:03.999Z</time></trkpt><trkpt lat="45.3560862" lon="8.8035046"><ele>112.0</ele><time>2026-04-18T14:28:05.998Z</time></trkpt><trkpt lat="45.3560288" lon="8.8034632"><ele>112.0</ele><time>2026-04-18T14:28:06.999Z</time></trkpt><trkpt lat="45.3559622" lon="8.8034222"><ele>112.00000000000001</ele><time>2026-04-18T14:28:07.998Z</time></trkpt><trkpt lat="45.3558904" lon="8.8033719"><ele>112.0</ele><time>2026-04-18T14:28:08.999Z</time></trkpt><trkpt lat="45.3558174" lon="8.8033174"><ele>112.16666666666667</ele><time>2026-04-18T14:28:09.999Z</time></trkpt><trkpt lat="45.3557415" lon="8.8032613"><ele>112.33333333333334</ele><time>2026-04-18T14:28:10.999Z</time></trkpt><trkpt lat="45.3556658" lon="8.8032054"><ele>112.5</ele><time>2026-04-18T14:28:11.998Z</time></trkpt><trkpt lat="45.3555886" lon="8.8031473"><ele>112.66666666666666</ele><time>2026-04-18T14:28:12.998Z</time></trkpt><trkpt lat="45.355516" lon="8.8030871"><ele>112.83333333333333</ele><time>2026-04-18T14:28:13.999Z</time></trkpt><trkpt lat="45.3554431" lon="8.8030288"><ele>113.0</ele><time>2026-04-18T14:28:14.998Z</time></trkpt><trkpt lat="45.3553691" lon="8.8029732"><ele>113.0</ele><time>2026-04-18T14:28:15.998Z</time></trkpt><trkpt lat="45.3552987" lon="8.8029183"><ele>113.00000000000001</ele><time>2026-04-18T14:28:16.999Z</time></trkpt><trkpt lat="45.3552334" lon="8.8028661"><ele>113.00000000000001</ele><time>2026-04-18T14:28:17.999Z</time></trkpt><trkpt lat="45.3551723" lon="8.8028213"><ele>113.0</ele><time>2026-04-18T14:28:18.998Z</time></trkpt><trkpt lat="45.3550817" lon="8.8027166"><ele>113.0</ele><time>2026-04-18T14:28:20.999Z</time></trkpt><trkpt lat="45.3550083" lon="8.8025842"><ele>113.16666666666666</ele><time>2026-04-18T14:28:22.998Z</time></trkpt><trkpt lat="45.3549517" lon="8.802431"><ele>113.33333333333333</ele><time>2026-04-18T14:28:24.999Z</time></trkpt><trkpt lat="45.3549286" lon="8.8023463"><ele>113.5</ele><time>2026-04-18T14:28:25.999Z</time></trkpt><trkpt lat="45.3548766" lon="8.8021885"><ele>113.66666666666666</ele><time>2026-04-18T14:28:27.999Z</time></trkpt><trkpt lat="45.3548462" lon="8.8021095"><ele>113.83333333333333</ele><time>2026-04-18T14:28:28.999Z</time></trkpt><trkpt lat="45.3548183" lon="8.8020272"><ele>114.0</ele><time>2026-04-18T14:28:29.999Z</time></trkpt><trkpt lat="45.3547696" lon="8.8018708"><ele>113.83333333333333</ele><time>2026-04-18T14:28:31.999Z</time></trkpt><trkpt lat="45.3547469" lon="8.8017852"><ele>113.66666666666666</ele><time>2026-04-18T14:28:32.999Z</time></trkpt><trkpt lat="45.354721" lon="8.8017006"><ele>113.5</ele><time>2026-04-18T14:28:33.998Z</time></trkpt><trkpt lat="45.3546754" lon="8.8015436"><ele>113.33333333333333</ele><time>2026-04-18T14:28:35.999Z</time></trkpt><trkpt lat="45.3546309" lon="8.8014131"><ele>113.16666666666666</ele><time>2026-04-18T14:28:37.999Z</time></trkpt><trkpt lat="45.3545656" lon="8.801352"><ele>113.0</ele><time>2026-04-18T14:28:39.999Z</time></trkpt><trkpt lat="45.3544914" lon="8.8013575"><ele>113.33333333333333</ele><time>2026-04-18T14:28:41.999Z</time></trkpt><trkpt lat="45.3543938" lon="8.8013831"><ele>113.66666666666666</ele><time>2026-04-18T14:28:43.999Z</time></trkpt><trkpt lat="45.3543025" lon="8.801419"><ele>114.0</ele><time>2026-04-18T14:28:45.999Z</time></trkpt><trkpt lat="45.3542106" lon="8.8014748"><ele>114.33333333333334</ele><time>2026-04-18T14:28:47.999Z</time></trkpt><trkpt lat="45.3541298" lon="8.8015299"><ele>114.66666666666667</ele><time>2026-04-18T14:28:49.999Z</time></trkpt><trkpt lat="45.3540794" lon="8.8015852"><ele>115.0</ele><time>2026-04-18T14:28:57.999Z</time></trkpt><trkpt lat="45.3541587" lon="8.8015306"><ele>115.00000000000001</ele><time>2026-04-18T14:29:23.998Z</time></trkpt><trkpt lat="45.3542455" lon="8.8014538"><ele>115.0</ele><time>2026-04-18T14:29:25.998Z</time></trkpt><trkpt lat="45.3543213" lon="8.8014163"><ele>115.0</ele><time>2026-04-18T14:29:27.999Z</time></trkpt><trkpt lat="45.3543629" lon="8.801347"><ele>115.0</ele><time>2026-04-18T14:29:30.998Z</time></trkpt><trkpt lat="45.3543342" lon="8.8012431"><ele>115.00000000000001</ele><time>2026-04-18T14:29:33.999Z</time></trkpt><trkpt lat="45.3542954" lon="8.8011322"><ele>115.0</ele><time>2026-04-18T14:29:35.999Z</time></trkpt><trkpt lat="45.354255" lon="8.8009952"><ele>115.0</ele><time>2026-04-18T14:29:37.998Z</time></trkpt><trkpt lat="45.3542192" lon="8.8008358"><ele>115.0</ele><time>2026-04-18T14:29:39.999Z</time></trkpt><trkpt lat="45.3541709" lon="8.8006781"><ele>115.0</ele><time>2026-04-18T14:29:41.998Z</time></trkpt><trkpt lat="45.3541123" lon="8.8005473"><ele>115.0</ele><time>2026-04-18T14:29:43.999Z</time></trkpt><trkpt lat="45.354039" lon="8.8004315"><ele>115.0</ele><time>2026-04-18T14:29:45.999Z</time></trkpt><trkpt lat="45.3539478" lon="8.8003645"><ele>115.0</ele><time>2026-04-18T14:29:47.999Z</time></trkpt><trkpt lat="45.3538619" lon="8.8003142"><ele>115.0</ele><time>2026-04-18T14:29:49.998Z</time></trkpt><trkpt lat="45.3537827" lon="8.8002622"><ele>115.0</ele><time>2026-04-18T14:29:51.998Z</time></trkpt><trkpt lat="45.3536987" lon="8.8002348"><ele>115.0</ele><time>2026-04-18T14:29:53.998Z</time></trkpt><trkpt lat="45.3536001" lon="8.8002215"><ele>114.75</ele><time>2026-04-18T14:29:55.999Z</time></trkpt><trkpt lat="45.3534899" lon="8.8001961"><ele>114.5</ele><time>2026-04-18T14:29:57.999Z</time></trkpt><trkpt lat="45.353372" lon="8.8001639"><ele>114.25</ele><time>2026-04-18T14:29:59.999Z</time></trkpt><trkpt lat="45.3532549" lon="8.8001138"><ele>114.0</ele><time>2026-04-18T14:30:01.999Z</time></trkpt><trkpt lat="45.3531505" lon="8.8000381"><ele>114.0</ele><time>2026-04-18T14:30:03.998Z</time></trkpt><trkpt lat="45.3530436" lon="8.7999426"><ele>114.0</ele><time>2026-04-18T14:30:05.999Z</time></trkpt><trkpt lat="45.3529895" lon="8.7998873"><ele>114.0</ele><time>2026-04-18T14:30:06.999Z</time></trkpt><trkpt lat="45.3529352" lon="8.7998279"><ele>114.0</ele><time>2026-04-18T14:30:07.999Z</time></trkpt><trkpt lat="45.3528814" lon="8.7997625"><ele>114.0</ele><time>2026-04-18T14:30:08.999Z</time></trkpt><trkpt lat="45.3528344" lon="8.7996911"><ele>114.0</ele><time>2026-04-18T14:30:09.999Z</time></trkpt><trkpt lat="45.3527847" lon="8.7996094"><ele>114.0</ele><time>2026-04-18T14:30:10.998Z</time></trkpt><trkpt lat="45.352737" lon="8.7995187"><ele>114.0</ele><time>2026-04-18T14:30:11.999Z</time></trkpt><trkpt lat="45.3526894" lon="8.7994252"><ele>114.0</ele><time>2026-04-18T14:30:12.998Z</time></trkpt><trkpt lat="45.3526447" lon="8.7993375"><ele>114.0</ele><time>2026-04-18T14:30:13.999Z</time></trkpt><trkpt lat="45.3526028" lon="8.7992569"><ele>114.0</ele><time>2026-04-18T14:30:14.998Z</time></trkpt><trkpt lat="45.3525353" lon="8.7991102"><ele>114.0</ele><time>2026-04-18T14:30:16.999Z</time></trkpt><trkpt lat="45.3524746" lon="8.7989721"><ele>114.0</ele><time>2026-04-18T14:30:18.998Z</time></trkpt><trkpt lat="45.3524381" lon="8.7988951"><ele>113.99999999999999</ele><time>2026-04-18T14:30:19.998Z</time></trkpt><trkpt lat="45.352402" lon="8.7988147"><ele>114.0</ele><time>2026-04-18T14:30:20.999Z</time></trkpt><trkpt lat="45.3523642" lon="8.7987344"><ele>114.0</ele><time>2026-04-18T14:30:21.999Z</time></trkpt><trkpt lat="45.352328" lon="8.7986548"><ele>113.99999999999999</ele><time>2026-04-18T14:30:22.999Z</time></trkpt><trkpt lat="45.3522938" lon="8.7985786"><ele>114.0</ele><time>2026-04-18T14:30:23.999Z</time></trkpt><trkpt lat="45.352257" lon="8.7984978"><ele>114.0</ele><time>2026-04-18T14:30:24.999Z</time></trkpt><trkpt lat="45.3522184" lon="8.798407"><ele>114.0</ele><time>2026-04-18T14:30:25.998Z</time></trkpt><trkpt lat="45.3521758" lon="8.7983161"><ele>114.0</ele><time>2026-04-18T14:30:26.998Z</time></trkpt><trkpt lat="45.352133" lon="8.7982209"><ele>114.0</ele><time>2026-04-18T14:30:27.999Z</time></trkpt><trkpt lat="45.3520885" lon="8.7981195"><ele>114.0</ele><time>2026-04-18T14:30:28.999Z</time></trkpt><trkpt lat="45.3520497" lon="8.7980228"><ele>114.0</ele><time>2026-04-18T14:30:29.999Z</time></trkpt><trkpt lat="45.3520106" lon="8.7979265"><ele>114.0</ele><time>2026-04-18T14:30:30.998Z</time></trkpt><trkpt lat="45.3519715" lon="8.79783"><ele>114.0</ele><time>2026-04-18T14:30:31.999Z</time></trkpt><trkpt lat="45.3519397" lon="8.7977471"><ele>113.99999999999999</ele><time>2026-04-18T14:30:32.998Z</time></trkpt><trkpt lat="45.3519088" lon="8.7976641"><ele>114.0</ele><time>2026-04-18T14:30:33.998Z</time></trkpt><trkpt lat="45.351881" lon="8.7975754"><ele>114.0</ele><time>2026-04-18T14:30:34.999Z</time></trkpt><trkpt lat="45.3518573" lon="8.7974786"><ele>113.99999999999999</ele><time>2026-04-18T14:30:35.998Z</time></trkpt><trkpt lat="45.3518316" lon="8.7973862"><ele>114.0</ele><time>2026-04-18T14:30:36.999Z</time></trkpt><trkpt lat="45.3518089" lon="8.7972946"><ele>114.0</ele><time>2026-04-18T14:30:37.999Z</time></trkpt><trkpt lat="45.3517873" lon="8.7972089"><ele>113.83333333333333</ele><time>2026-04-18T14:30:38.998Z</time></trkpt><trkpt lat="45.3517605" lon="8.797117"><ele>113.66666666666666</ele><time>2026-04-18T14:30:39.999Z</time></trkpt><trkpt lat="45.3517333" lon="8.7970163"><ele>113.5</ele><time>2026-04-18T14:30:40.999Z</time></trkpt><trkpt lat="45.3517066" lon="8.7969093"><ele>113.33333333333333</ele><time>2026-04-18T14:30:41.999Z</time></trkpt><trkpt lat="45.3516698" lon="8.7967984"><ele>113.16666666666666</ele><time>2026-04-18T14:30:42.999Z</time></trkpt><trkpt lat="45.3516368" lon="8.7966977"><ele>113.0</ele><time>2026-04-18T14:30:43.999Z</time></trkpt><trkpt lat="45.3515991" lon="8.7966001"><ele>112.99999999999999</ele><time>2026-04-18T14:30:44.999Z</time></trkpt><trkpt lat="45.3515575" lon="8.7965065"><ele>113.0</ele><time>2026-04-18T14:30:45.999Z</time></trkpt><trkpt lat="45.3515091" lon="8.7964148"><ele>113.0</ele><time>2026-04-18T14:30:46.999Z</time></trkpt><trkpt lat="45.3514504" lon="8.7963236"><ele>113.0</ele><time>2026-04-18T14:30:47.998Z</time></trkpt><trkpt lat="45.3513912" lon="8.796235"><ele>112.99999999999999</ele><time>2026-04-18T14:30:48.998Z</time></trkpt><trkpt lat="45.3513402" lon="8.7961466"><ele>113.0</ele><time>2026-04-18T14:30:49.998Z</time></trkpt><trkpt lat="45.3512955" lon="8.7960459"><ele>112.99999999999999</ele><time>2026-04-18T14:30:50.999Z</time></trkpt><trkpt lat="45.3512568" lon="8.7959383"><ele>113.0</ele><time>2026-04-18T14:30:51.998Z</time></trkpt><trkpt lat="45.351217" lon="8.795821"><ele>113.0</ele><time>2026-04-18T14:30:52.998Z</time></trkpt><trkpt lat="45.3511771" lon="8.795706"><ele>113.0</ele><time>2026-04-18T14:30:53.999Z</time></trkpt><trkpt lat="45.3511389" lon="8.7955928"><ele>112.99999999999999</ele><time>2026-04-18T14:30:54.999Z</time></trkpt><trkpt lat="45.3511043" lon="8.7954768"><ele>113.0</ele><time>2026-04-18T14:30:55.999Z</time></trkpt><trkpt lat="45.3510695" lon="8.7953648"><ele>112.99999999999999</ele><time>2026-04-18T14:30:56.999Z</time></trkpt><trkpt lat="45.3510329" lon="8.7952575"><ele>113.0</ele><time>2026-04-18T14:30:57.998Z</time></trkpt><trkpt lat="45.3509966" lon="8.795154"><ele>113.0</ele><time>2026-04-18T14:30:58.998Z</time></trkpt><trkpt lat="45.3509593" lon="8.7950515"><ele>113.0</ele><time>2026-04-18T14:30:59.999Z</time></trkpt><trkpt lat="45.3509259" lon="8.7949514"><ele>112.99999999999999</ele><time>2026-04-18T14:31:00.999Z</time></trkpt><trkpt lat="45.3509003" lon="8.7948411"><ele>113.0</ele><time>2026-04-18T14:31:01.999Z</time></trkpt><trkpt lat="45.3508821" lon="8.7947108"><ele>112.99999999999999</ele><time>2026-04-18T14:31:02.998Z</time></trkpt><trkpt lat="45.35087" lon="8.7945783"><ele>113.0</ele><time>2026-04-18T14:31:03.999Z</time></trkpt><trkpt lat="45.3508538" lon="8.7944424"><ele>113.0</ele><time>2026-04-18T14:31:04.999Z</time></trkpt><trkpt lat="45.3508403" lon="8.7943077"><ele>113.0</ele><time>2026-04-18T14:31:05.999Z</time></trkpt><trkpt lat="45.3508278" lon="8.7941878"><ele>112.99999999999999</ele><time>2026-04-18T14:31:06.998Z</time></trkpt><trkpt lat="45.3508158" lon="8.7940794"><ele>113.0</ele><time>2026-04-18T14:31:07.998Z</time></trkpt><trkpt lat="45.35079" lon="8.7939935"><ele>112.99999999999999</ele><time>2026-04-18T14:31:08.999Z</time></trkpt><trkpt lat="45.3507068" lon="8.7938927"><ele>113.0</ele><time>2026-04-18T14:31:10.998Z</time></trkpt><trkpt lat="45.3506433" lon="8.7938541"><ele>113.0</ele><time>2026-04-18T14:31:11.999Z</time></trkpt><trkpt lat="45.3505741" lon="8.7938183"><ele>113.0</ele><time>2026-04-18T14:31:12.999Z</time></trkpt><trkpt lat="45.3505" lon="8.7937801"><ele>112.99999999999999</ele><time>2026-04-18T14:31:13.998Z</time></trkpt><trkpt lat="45.3504204" lon="8.7937435"><ele>113.0</ele><time>2026-04-18T14:31:14.999Z</time></trkpt><trkpt lat="45.3503405" lon="8.7937009"><ele>113.0</ele><time>2026-04-18T14:31:15.998Z</time></trkpt><trkpt lat="45.3502584" lon="8.7936572"><ele>113.00000000000001</ele><time>2026-04-18T14:31:16.998Z</time></trkpt><trkpt lat="45.3501774" lon="8.793614"><ele>113.00000000000001</ele><time>2026-04-18T14:31:17.999Z</time></trkpt><trkpt lat="45.3500921" lon="8.7935713"><ele>113.0</ele><time>2026-04-18T14:31:18.999Z</time></trkpt><trkpt lat="45.3500038" lon="8.7935284"><ele>113.0</ele><time>2026-04-18T14:31:19.999Z</time></trkpt><trkpt lat="45.3499103" lon="8.793486"><ele>113.0</ele><time>2026-04-18T14:31:20.998Z</time></trkpt><trkpt lat="45.3498103" lon="8.7934359"><ele>113.00000000000001</ele><time>2026-04-18T14:31:21.999Z</time></trkpt><trkpt lat="45.3497104" lon="8.793379"><ele>113.00000000000001</ele><time>2026-04-18T14:31:22.999Z</time></trkpt><trkpt lat="45.3496091" lon="8.793323"><ele>113.0</ele><time>2026-04-18T14:31:23.999Z</time></trkpt><trkpt lat="45.3495066" lon="8.7932685"><ele>113.0</ele><time>2026-04-18T14:31:24.998Z</time></trkpt><trkpt lat="45.3494092" lon="8.7932171"><ele>113.0</ele><time>2026-04-18T14:31:25.999Z</time></trkpt><trkpt lat="45.3493038" lon="8.7931662"><ele>113.00000000000001</ele><time>2026-04-18T14:31:26.999Z</time></trkpt><trkpt lat="45.3492014" lon="8.7931209"><ele>113.00000000000001</ele><time>2026-04-18T14:31:27.999Z</time></trkpt><trkpt lat="45.3491003" lon="8.793071"><ele>113.0</ele><time>2026-04-18T14:31:28.999Z</time></trkpt><trkpt lat="45.3489932" lon="8.7930194"><ele>113.0</ele><time>2026-04-18T14:31:29.998Z</time></trkpt><trkpt lat="45.348887" lon="8.7929677"><ele>113.2</ele><time>2026-04-18T14:31:30.998Z</time></trkpt><trkpt lat="45.34878" lon="8.7929153"><ele>113.4</ele><time>2026-04-18T14:31:31.998Z</time></trkpt><trkpt lat="45.3486754" lon="8.7928619"><ele>113.60000000000001</ele><time>2026-04-18T14:31:32.999Z</time></trkpt><trkpt lat="45.3485744" lon="8.7928078"><ele>113.80000000000001</ele><time>2026-04-18T14:31:33.999Z</time></trkpt><trkpt lat="45.3484715" lon="8.7927498"><ele>114.0</ele><time>2026-04-18T14:31:34.999Z</time></trkpt><trkpt lat="45.348372" lon="8.7926844"><ele>113.83333333333333</ele><time>2026-04-18T14:31:35.999Z</time></trkpt><trkpt lat="45.3482688" lon="8.7926263"><ele>113.66666666666666</ele><time>2026-04-18T14:31:36.999Z</time></trkpt><trkpt lat="45.3481747" lon="8.7925728"><ele>113.5</ele><time>2026-04-18T14:31:37.999Z</time></trkpt><trkpt lat="45.3480892" lon="8.7925264"><ele>113.33333333333333</ele><time>2026-04-18T14:31:38.998Z</time></trkpt><trkpt lat="45.3480161" lon="8.7924895"><ele>113.16666666666666</ele><time>2026-04-18T14:31:39.999Z</time></trkpt><trkpt lat="45.3479535" lon="8.7924584"><ele>113.0</ele><time>2026-04-18T14:31:40.999Z</time></trkpt><trkpt lat="45.3478535" lon="8.7923982"><ele>112.99999999999999</ele><time>2026-04-18T14:31:42.999Z</time></trkpt><trkpt lat="45.3477762" lon="8.7922774"><ele>113.0</ele><time>2026-04-18T14:31:44.999Z</time></trkpt><trkpt lat="45.3477568" lon="8.7921894"><ele>113.0</ele><time>2026-04-18T14:31:45.999Z</time></trkpt><trkpt lat="45.3477457" lon="8.7920794"><ele>113.0</ele><time>2026-04-18T14:31:46.999Z</time></trkpt><trkpt lat="45.3477354" lon="8.7919567"><ele>112.99999999999999</ele><time>2026-04-18T14:31:47.999Z</time></trkpt><trkpt lat="45.3477242" lon="8.7918221"><ele>113.0</ele><time>2026-04-18T14:31:48.999Z</time></trkpt><trkpt lat="45.3477108" lon="8.7916827"><ele>113.0</ele><time>2026-04-18T14:31:49.998Z</time></trkpt><trkpt lat="45.3476924" lon="8.7915395"><ele>113.00000000000001</ele><time>2026-04-18T14:31:50.998Z</time></trkpt><trkpt lat="45.3476773" lon="8.7913985"><ele>113.00000000000001</ele><time>2026-04-18T14:31:51.999Z</time></trkpt><trkpt lat="45.347659" lon="8.7912598"><ele>113.0</ele><time>2026-04-18T14:31:52.999Z</time></trkpt><trkpt lat="45.3476402" lon="8.7911227"><ele>113.0</ele><time>2026-04-18T14:31:53.998Z</time></trkpt><trkpt lat="45.3476288" lon="8.7909836"><ele>112.60000000000001</ele><time>2026-04-18T14:31:54.999Z</time></trkpt><trkpt lat="45.3476159" lon="8.7908398"><ele>112.20000000000002</ele><time>2026-04-18T14:31:55.998Z</time></trkpt><trkpt lat="45.3476027" lon="8.790691"><ele>111.8</ele><time>2026-04-18T14:31:56.998Z</time></trkpt><trkpt lat="45.3475858" lon="8.7905385"><ele>111.4</ele><time>2026-04-18T14:31:57.999Z</time></trkpt><trkpt lat="45.3475688" lon="8.7903803"><ele>111.0</ele><time>2026-04-18T14:31:58.999Z</time></trkpt><trkpt lat="45.3475504" lon="8.7902169"><ele>111.25</ele><time>2026-04-18T14:31:59.999Z</time></trkpt><trkpt lat="45.3475317" lon="8.7900502"><ele>111.5</ele><time>2026-04-18T14:32:00.999Z</time></trkpt><trkpt lat="45.3475125" lon="8.7898832"><ele>111.75</ele><time>2026-04-18T14:32:01.999Z</time></trkpt><trkpt lat="45.3474908" lon="8.7897182"><ele>112.0</ele><time>2026-04-18T14:32:02.999Z</time></trkpt><trkpt lat="45.3474737" lon="8.7895568"><ele>112.0</ele><time>2026-04-18T14:32:03.999Z</time></trkpt><trkpt lat="45.3474536" lon="8.7894025"><ele>111.99999999999999</ele><time>2026-04-18T14:32:04.999Z</time></trkpt><trkpt lat="45.3474317" lon="8.7892463"><ele>111.99999999999999</ele><time>2026-04-18T14:32:05.999Z</time></trkpt><trkpt lat="45.3474142" lon="8.789095"><ele>112.0</ele><time>2026-04-18T14:32:06.998Z</time></trkpt><trkpt lat="45.347397" lon="8.7889453"><ele>112.0</ele><time>2026-04-18T14:32:07.999Z</time></trkpt><trkpt lat="45.347378" lon="8.7887847"><ele>112.0</ele><time>2026-04-18T14:32:08.998Z</time></trkpt><trkpt lat="45.347357" lon="8.788616"><ele>112.0</ele><time>2026-04-18T14:32:09.999Z</time></trkpt><trkpt lat="45.3473371" lon="8.7884407"><ele>112.0</ele><time>2026-04-18T14:32:10.998Z</time></trkpt><trkpt lat="45.3473165" lon="8.7882696"><ele>112.0</ele><time>2026-04-18T14:32:11.998Z</time></trkpt><trkpt lat="45.3472983" lon="8.7881024"><ele>112.0</ele><time>2026-04-18T14:32:12.999Z</time></trkpt><trkpt lat="45.3472791" lon="8.7879413"><ele>111.99999999999999</ele><time>2026-04-18T14:32:13.999Z</time></trkpt><trkpt lat="45.3472601" lon="8.7878003"><ele>111.99999999999999</ele><time>2026-04-18T14:32:14.998Z</time></trkpt><trkpt lat="45.3472439" lon="8.7876759"><ele>112.0</ele><time>2026-04-18T14:32:15.999Z</time></trkpt><trkpt lat="45.3472293" lon="8.7875733"><ele>112.0</ele><time>2026-04-18T14:32:16.998Z</time></trkpt><trkpt lat="45.3472157" lon="8.7874675"><ele>112.25</ele><time>2026-04-18T14:32:18.999Z</time></trkpt><trkpt lat="45.3472806" lon="8.7874137"><ele>112.5</ele><time>2026-04-18T14:32:30.999Z</time></trkpt><trkpt lat="45.3471" lon="8.7872211"><ele>112.75</ele><time>2026-04-18T14:33:38.996Z</time></trkpt><trkpt lat="45.347054" lon="8.7871441"><ele>113.0</ele><time>2026-04-18T14:33:41.997Z</time></trkpt><trkpt lat="45.3470395" lon="8.7870148"><ele>113.16666666666666</ele><time>2026-04-18T14:33:44.996Z</time></trkpt><trkpt lat="45.3470938" lon="8.7869603"><ele>113.33333333333333</ele><time>2026-04-18T14:33:45.995Z</time></trkpt><trkpt lat="45.3471692" lon="8.7868472"><ele>113.5</ele><time>2026-04-18T14:33:47.996Z</time></trkpt><trkpt lat="45.3472115" lon="8.7867787"><ele>113.66666666666666</ele><time>2026-04-18T14:33:48.995Z</time></trkpt><trkpt lat="45.3472653" lon="8.7867051"><ele>113.83333333333333</ele><time>2026-04-18T14:33:49.996Z</time></trkpt><trkpt lat="45.3473241" lon="8.7866224"><ele>114.0</ele><time>2026-04-18T14:33:50.995Z</time></trkpt><trkpt lat="45.3473855" lon="8.7865297"><ele>114.0</ele><time>2026-04-18T14:33:51.995Z</time></trkpt><trkpt lat="45.3474472" lon="8.7864369"><ele>114.0</ele><time>2026-04-18T14:33:52.995Z</time></trkpt><trkpt lat="45.3475112" lon="8.7863413"><ele>114.0</ele><time>2026-04-18T14:33:53.995Z</time></trkpt><trkpt lat="45.3475729" lon="8.7862496"><ele>114.0</ele><time>2026-04-18T14:33:54.996Z</time></trkpt><trkpt lat="45.3476283" lon="8.7861613"><ele>114.0</ele><time>2026-04-18T14:33:55.996Z</time></trkpt><trkpt lat="45.3476877" lon="8.7860754"><ele>114.0</ele><time>2026-04-18T14:33:56.995Z</time></trkpt><trkpt lat="45.3477512" lon="8.7859862"><ele>113.80000000000001</ele><time>2026-04-18T14:33:57.996Z</time></trkpt><trkpt lat="45.34782" lon="8.78589"><ele>113.60000000000001</ele><time>2026-04-18T14:33:58.996Z</time></trkpt><trkpt lat="45.347884" lon="8.785785"><ele>113.4</ele><time>2026-04-18T14:33:59.995Z</time></trkpt><trkpt lat="45.3479521" lon="8.7856795"><ele>113.2</ele><time>2026-04-18T14:34:00.996Z</time></trkpt><trkpt lat="45.3480203" lon="8.7855748"><ele>113.0</ele><time>2026-04-18T14:34:01.996Z</time></trkpt><trkpt lat="45.3480838" lon="8.7854809"><ele>113.0</ele><time>2026-04-18T14:34:02.995Z</time></trkpt><trkpt lat="45.3481457" lon="8.7853898"><ele>113.00000000000001</ele><time>2026-04-18T14:34:03.996Z</time></trkpt><trkpt lat="45.3482097" lon="8.7852984"><ele>113.00000000000001</ele><time>2026-04-18T14:34:04.995Z</time></trkpt><trkpt lat="45.3482763" lon="8.785206"><ele>113.0</ele><time>2026-04-18T14:34:05.996Z</time></trkpt><trkpt lat="45.3483446" lon="8.7851109"><ele>113.0</ele><time>2026-04-18T14:34:06.996Z</time></trkpt><trkpt lat="45.3484098" lon="8.7850107"><ele>113.0</ele><time>2026-04-18T14:34:07.995Z</time></trkpt><trkpt lat="45.3484806" lon="8.7849059"><ele>113.00000000000001</ele><time>2026-04-18T14:34:08.996Z</time></trkpt><trkpt lat="45.3485536" lon="8.7847968"><ele>113.00000000000001</ele><time>2026-04-18T14:34:09.996Z</time></trkpt><trkpt lat="45.348629" lon="8.7846891"><ele>113.0</ele><time>2026-04-18T14:34:10.995Z</time></trkpt><trkpt lat="45.348702" lon="8.7845859"><ele>113.0</ele><time>2026-04-18T14:34:11.996Z</time></trkpt><trkpt lat="45.348768" lon="8.7844844"><ele>112.99999999999999</ele><time>2026-04-18T14:34:12.996Z</time></trkpt><trkpt lat="45.3488307" lon="8.7843937"><ele>113.0</ele><time>2026-04-18T14:34:13.996Z</time></trkpt><trkpt lat="45.3488853" lon="8.78432"><ele>113.0</ele><time>2026-04-18T14:34:14.996Z</time></trkpt><trkpt lat="45.3489387" lon="8.7842704"><ele>113.0</ele><time>2026-04-18T14:34:15.996Z</time></trkpt><trkpt lat="45.3490348" lon="8.7842481"><ele>112.99999999999999</ele><time>2026-04-18T14:34:17.996Z</time></trkpt><trkpt lat="45.3491304" lon="8.7842327"><ele>113.0</ele><time>2026-04-18T14:34:19.996Z</time></trkpt><trkpt lat="45.3492214" lon="8.7841285"><ele>112.99999999999999</ele><time>2026-04-18T14:34:21.996Z</time></trkpt><trkpt lat="45.3492731" lon="8.7840516"><ele>113.0</ele><time>2026-04-18T14:34:22.996Z</time></trkpt><trkpt lat="45.3493284" lon="8.7839571"><ele>113.0</ele><time>2026-04-18T14:34:23.996Z</time></trkpt><trkpt lat="45.3493893" lon="8.7838637"><ele>113.0</ele><time>2026-04-18T14:34:24.995Z</time></trkpt><trkpt lat="45.3494547" lon="8.7837694"><ele>112.99999999999999</ele><time>2026-04-18T14:34:25.995Z</time></trkpt><trkpt lat="45.3495213" lon="8.7836741"><ele>113.0</ele><time>2026-04-18T14:34:26.996Z</time></trkpt><trkpt lat="45.3495852" lon="8.7835824"><ele>112.99999999999999</ele><time>2026-04-18T14:34:27.996Z</time></trkpt><trkpt lat="45.3496447" lon="8.7834917"><ele>113.0</ele><time>2026-04-18T14:34:28.996Z</time></trkpt><trkpt lat="45.3497016" lon="8.7834005"><ele>113.0</ele><time>2026-04-18T14:34:29.996Z</time></trkpt><trkpt lat="45.3497576" lon="8.7833168"><ele>113.0</ele><time>2026-04-18T14:34:30.996Z</time></trkpt><trkpt lat="45.3498103" lon="8.7832374"><ele>112.99999999999999</ele><time>2026-04-18T14:34:31.995Z</time></trkpt><trkpt lat="45.3498613" lon="8.7831672"><ele>113.0</ele><time>2026-04-18T14:34:32.995Z</time></trkpt><trkpt lat="45.3499519" lon="8.7830468"><ele>113.16666666666666</ele><time>2026-04-18T14:34:34.996Z</time></trkpt><trkpt lat="45.3500355" lon="8.7829149"><ele>113.33333333333333</ele><time>2026-04-18T14:34:36.996Z</time></trkpt><trkpt lat="45.3500838" lon="8.7828453"><ele>113.5</ele><time>2026-04-18T14:34:37.996Z</time></trkpt><trkpt lat="45.3501362" lon="8.7827672"><ele>113.66666666666666</ele><time>2026-04-18T14:34:38.996Z</time></trkpt><trkpt lat="45.3501915" lon="8.782689"><ele>113.83333333333333</ele><time>2026-04-18T14:34:39.996Z</time></trkpt><trkpt lat="45.3502472" lon="8.782613"><ele>114.0</ele><time>2026-04-18T14:34:40.995Z</time></trkpt><trkpt lat="45.3502999" lon="8.7825366"><ele>114.0</ele><time>2026-04-18T14:34:41.996Z</time></trkpt><trkpt lat="45.3503482" lon="8.7824563"><ele>114.0</ele><time>2026-04-18T14:34:42.995Z</time></trkpt><trkpt lat="45.350399" lon="8.7823739"><ele>114.0</ele><time>2026-04-18T14:34:43.995Z</time></trkpt><trkpt lat="45.3504542" lon="8.7822951"><ele>114.0</ele><time>2026-04-18T14:34:44.996Z</time></trkpt><trkpt lat="45.3505115" lon="8.7822127"><ele>114.0</ele><time>2026-04-18T14:34:45.995Z</time></trkpt><trkpt lat="45.3505709" lon="8.7821281"><ele>114.0</ele><time>2026-04-18T14:34:46.996Z</time></trkpt><trkpt lat="45.3506284" lon="8.782046"><ele>114.0</ele><time>2026-04-18T14:34:47.995Z</time></trkpt><trkpt lat="45.3506878" lon="8.7819616"><ele>114.0</ele><time>2026-04-18T14:34:48.996Z</time></trkpt><trkpt lat="45.3507422" lon="8.781878"><ele>114.0</ele><time>2026-04-18T14:34:49.995Z</time></trkpt><trkpt lat="45.3507994" lon="8.7817947"><ele>114.0</ele><time>2026-04-18T14:34:50.996Z</time></trkpt><trkpt lat="45.3508565" lon="8.7817098"><ele>114.0</ele><time>2026-04-18T14:34:51.996Z</time></trkpt><trkpt lat="45.350919" lon="8.7816256"><ele>114.0</ele><time>2026-04-18T14:34:52.996Z</time></trkpt><trkpt lat="45.3509811" lon="8.7815351"><ele>114.0</ele><time>2026-04-18T14:34:53.996Z</time></trkpt><trkpt lat="45.3510448" lon="8.7814372"><ele>114.0</ele><time>2026-04-18T14:34:54.996Z</time></trkpt><trkpt lat="45.3511061" lon="8.781347"><ele>114.0</ele><time>2026-04-18T14:34:55.996Z</time></trkpt><trkpt lat="45.3511599" lon="8.7812621"><ele>114.0</ele><time>2026-04-18T14:34:56.996Z</time></trkpt><trkpt lat="45.3512096" lon="8.781176"><ele>114.0</ele><time>2026-04-18T14:34:57.996Z</time></trkpt><trkpt lat="45.3512632" lon="8.7810956"><ele>114.0</ele><time>2026-04-18T14:34:58.996Z</time></trkpt><trkpt lat="45.3513196" lon="8.7810131"><ele>114.16666666666667</ele><time>2026-04-18T14:34:59.995Z</time></trkpt><trkpt lat="45.3513764" lon="8.7809266"><ele>114.33333333333334</ele><time>2026-04-18T14:35:00.996Z</time></trkpt><trkpt lat="45.3514366" lon="8.7808356"><ele>114.5</ele><time>2026-04-18T14:35:01.995Z</time></trkpt><trkpt lat="45.3515006" lon="8.7807409"><ele>114.66666666666667</ele><time>2026-04-18T14:35:02.996Z</time></trkpt><trkpt lat="45.3515559" lon="8.780649"><ele>114.83333333333334</ele><time>2026-04-18T14:35:03.996Z</time></trkpt><trkpt lat="45.3516052" lon="8.780567"><ele>115.0</ele><time>2026-04-18T14:35:04.995Z</time></trkpt><trkpt lat="45.3516531" lon="8.7804859"><ele>115.0</ele><time>2026-04-18T14:35:05.996Z</time></trkpt><trkpt lat="45.3516991" lon="8.780401"><ele>115.0</ele><time>2026-04-18T14:35:06.996Z</time></trkpt><trkpt lat="45.3517716" lon="8.7802648"><ele>115.0</ele><time>2026-04-18T14:35:08.996Z</time></trkpt><trkpt lat="45.3518404" lon="8.7801495"><ele>115.0</ele><time>2026-04-18T14:35:10.995Z</time></trkpt><trkpt lat="45.3519133" lon="8.7800677"><ele>115.0</ele><time>2026-04-18T14:35:12.996Z</time></trkpt><trkpt lat="45.3519881" lon="8.7800101"><ele>114.83333333333334</ele><time>2026-04-18T14:35:14.996Z</time></trkpt><trkpt lat="45.3520598" lon="8.7799786"><ele>114.66666666666667</ele><time>2026-04-18T14:35:16.995Z</time></trkpt><trkpt lat="45.3521324" lon="8.7799619"><ele>114.5</ele><time>2026-04-18T14:35:18.995Z</time></trkpt><trkpt lat="45.3522004" lon="8.7799188"><ele>114.33333333333334</ele><time>2026-04-18T14:35:20.996Z</time></trkpt><trkpt lat="45.3522396" lon="8.7798061"><ele>114.16666666666667</ele><time>2026-04-18T14:35:23.996Z</time></trkpt><trkpt lat="45.3521936" lon="8.7796478"><ele>114.0</ele><time>2026-04-18T14:35:25.995Z</time></trkpt><trkpt lat="45.3521478" lon="8.7795473"><ele>114.0</ele><time>2026-04-18T14:35:26.996Z</time></trkpt><trkpt lat="45.352094" lon="8.7794236"><ele>114.0</ele><time>2026-04-18T14:35:27.996Z</time></trkpt><trkpt lat="45.3520366" lon="8.7792782"><ele>114.0</ele><time>2026-04-18T14:35:28.996Z</time></trkpt><trkpt lat="45.3519704" lon="8.7791202"><ele>114.0</ele><time>2026-04-18T14:35:29.996Z</time></trkpt><trkpt lat="45.3518892" lon="8.7789558"><ele>113.66666666666666</ele><time>2026-04-18T14:35:30.995Z</time></trkpt><trkpt lat="45.3517987" lon="8.7787898"><ele>113.33333333333333</ele><time>2026-04-18T14:35:31.995Z</time></trkpt><trkpt lat="45.3516992" lon="8.7786247"><ele>113.0</ele><time>2026-04-18T14:35:32.996Z</time></trkpt><trkpt lat="45.3515885" lon="8.7784512"><ele>113.0</ele><time>2026-04-18T14:35:33.996Z</time></trkpt><trkpt lat="45.3514677" lon="8.7782821"><ele>113.0</ele><time>2026-04-18T14:35:34.996Z</time></trkpt><trkpt lat="45.3513407" lon="8.7781165"><ele>113.0</ele><time>2026-04-18T14:35:35.995Z</time></trkpt><trkpt lat="45.351206" lon="8.7779612"><ele>113.0</ele><time>2026-04-18T14:35:36.996Z</time></trkpt><trkpt lat="45.3510683" lon="8.7778102"><ele>113.0</ele><time>2026-04-18T14:35:37.996Z</time></trkpt><trkpt lat="45.3509328" lon="8.7776826"><ele>113.0</ele><time>2026-04-18T14:35:38.996Z</time></trkpt><trkpt lat="45.3508018" lon="8.7775763"><ele>113.0</ele><time>2026-04-18T14:35:39.995Z</time></trkpt><trkpt lat="45.3506976" lon="8.7774934"><ele>113.00000000000001</ele><time>2026-04-18T14:35:40.996Z</time></trkpt><trkpt lat="45.3506187" lon="8.7774297"><ele>113.00000000000001</ele><time>2026-04-18T14:35:41.996Z</time></trkpt><trkpt lat="45.3505343" lon="8.7773645"><ele>113.0</ele><time>2026-04-18T14:35:42.995Z</time></trkpt><trkpt lat="45.3504562" lon="8.7773164"><ele>113.0</ele><time>2026-04-18T14:35:43.995Z</time></trkpt><trkpt lat="45.3503879" lon="8.7772814"><ele>113.2</ele><time>2026-04-18T14:35:44.995Z</time></trkpt><trkpt lat="45.35029" lon="8.7772234"><ele>113.4</ele><time>2026-04-18T14:35:46.996Z</time></trkpt><trkpt lat="45.3502561" lon="8.7771223"><ele>113.60000000000001</ele><time>2026-04-18T14:35:48.996Z</time></trkpt><trkpt lat="45.3502527" lon="8.7770113"><ele>113.80000000000001</ele><time>2026-04-18T14:35:50.995Z</time></trkpt><trkpt lat="45.3502471" lon="8.7768702"><ele>114.0</ele><time>2026-04-18T14:35:52.996Z</time></trkpt><trkpt lat="45.3502377" lon="8.7767171"><ele>114.16666666666667</ele><time>2026-04-18T14:35:54.996Z</time></trkpt><trkpt lat="45.3502293" lon="8.7765393"><ele>114.33333333333334</ele><time>2026-04-18T14:35:56.996Z</time></trkpt><trkpt lat="45.350226" lon="8.7764382"><ele>114.5</ele><time>2026-04-18T14:35:57.996Z</time></trkpt><trkpt lat="45.3502214" lon="8.7763244"><ele>114.66666666666667</ele><time>2026-04-18T14:35:58.995Z</time></trkpt><trkpt lat="45.3502184" lon="8.7762074"><ele>114.83333333333334</ele><time>2026-04-18T14:35:59.995Z</time></trkpt><trkpt lat="45.3502111" lon="8.776088"><ele>115.0</ele><time>2026-04-18T14:36:00.995Z</time></trkpt><trkpt lat="45.3502052" lon="8.7759664"><ele>115.00000000000001</ele><time>2026-04-18T14:36:01.996Z</time></trkpt><trkpt lat="45.3502018" lon="8.7758447"><ele>115.0</ele><time>2026-04-18T14:36:02.995Z</time></trkpt><trkpt lat="45.3501959" lon="8.775723"><ele>115.0</ele><time>2026-04-18T14:36:03.995Z</time></trkpt><trkpt lat="45.350187" lon="8.775598"><ele>115.0</ele><time>2026-04-18T14:36:04.996Z</time></trkpt><trkpt lat="45.350175" lon="8.7754699"><ele>115.00000000000001</ele><time>2026-04-18T14:36:05.995Z</time></trkpt><trkpt lat="45.3501647" lon="8.7753428"><ele>115.0</ele><time>2026-04-18T14:36:06.996Z</time></trkpt><trkpt lat="45.350152" lon="8.7752154"><ele>114.8</ele><time>2026-04-18T14:36:07.995Z</time></trkpt><trkpt lat="45.3501351" lon="8.7750895"><ele>114.6</ele><time>2026-04-18T14:36:08.996Z</time></trkpt><trkpt lat="45.350116" lon="8.774965"><ele>114.4</ele><time>2026-04-18T14:36:09.996Z</time></trkpt><trkpt lat="45.3500887" lon="8.7748412"><ele>114.2</ele><time>2026-04-18T14:36:10.996Z</time></trkpt><trkpt lat="45.3500628" lon="8.7747062"><ele>114.0</ele><time>2026-04-18T14:36:11.996Z</time></trkpt><trkpt lat="45.3500422" lon="8.7745672"><ele>114.0</ele><time>2026-04-18T14:36:12.996Z</time></trkpt><trkpt lat="45.3500224" lon="8.7744308"><ele>114.0</ele><time>2026-04-18T14:36:13.996Z</time></trkpt><trkpt lat="45.3500074" lon="8.7742918"><ele>114.0</ele><time>2026-04-18T14:36:14.996Z</time></trkpt><trkpt lat="45.3499908" lon="8.7741499"><ele>114.0</ele><time>2026-04-18T14:36:15.996Z</time></trkpt><trkpt lat="45.3499749" lon="8.774008"><ele>114.0</ele><time>2026-04-18T14:36:16.995Z</time></trkpt><trkpt lat="45.3499575" lon="8.7738569"><ele>114.0</ele><time>2026-04-18T14:36:17.996Z</time></trkpt><trkpt lat="45.3499389" lon="8.773705"><ele>114.0</ele><time>2026-04-18T14:36:18.996Z</time></trkpt><trkpt lat="45.349919" lon="8.7735566"><ele>114.0</ele><time>2026-04-18T14:36:19.996Z</time></trkpt><trkpt lat="45.3499039" lon="8.7734118"><ele>114.0</ele><time>2026-04-18T14:36:20.995Z</time></trkpt><trkpt lat="45.3498822" lon="8.7732616"><ele>114.0</ele><time>2026-04-18T14:36:21.996Z</time></trkpt><trkpt lat="45.3498658" lon="8.7731151"><ele>114.2</ele><time>2026-04-18T14:36:22.996Z</time></trkpt><trkpt lat="45.3498447" lon="8.7729659"><ele>114.4</ele><time>2026-04-18T14:36:23.995Z</time></trkpt><trkpt lat="45.3498274" lon="8.772813"><ele>114.6</ele><time>2026-04-18T14:36:24.996Z</time></trkpt><trkpt lat="45.34981" lon="8.7726622"><ele>114.8</ele><time>2026-04-18T14:36:25.996Z</time></trkpt><trkpt lat="45.3497918" lon="8.7725087"><ele>115.0</ele><time>2026-04-18T14:36:26.995Z</time></trkpt><trkpt lat="45.3497734" lon="8.7723541"><ele>115.00000000000001</ele><time>2026-04-18T14:36:27.996Z</time></trkpt><trkpt lat="45.349755" lon="8.7722048"><ele>115.0</ele><time>2026-04-18T14:36:28.996Z</time></trkpt><trkpt lat="45.3497391" lon="8.7720673"><ele>115.0</ele><time>2026-04-18T14:36:29.996Z</time></trkpt><trkpt lat="45.3497212" lon="8.7719429"><ele>115.0</ele><time>2026-04-18T14:36:30.996Z</time></trkpt><trkpt lat="45.3497086" lon="8.7718314"><ele>115.00000000000001</ele><time>2026-04-18T14:36:31.996Z</time></trkpt><trkpt lat="45.3497007" lon="8.7717306"><ele>115.0</ele><time>2026-04-18T14:36:32.996Z</time></trkpt><trkpt lat="45.3496955" lon="8.7715984"><ele>114.8</ele><time>2026-04-18T14:36:34.996Z</time></trkpt><trkpt lat="45.3496922" lon="8.7715033"><ele>114.6</ele><time>2026-04-18T14:36:36.996Z</time></trkpt><trkpt lat="45.3496867" lon="8.7713926"><ele>114.4</ele><time>2026-04-18T14:36:38.996Z</time></trkpt><trkpt lat="45.3496825" lon="8.7712495"><ele>114.2</ele><time>2026-04-18T14:36:40.996Z</time></trkpt><trkpt lat="45.3496685" lon="8.7710865"><ele>114.0</ele><time>2026-04-18T14:36:42.996Z</time></trkpt><trkpt lat="45.3496587" lon="8.7709328"><ele>114.0</ele><time>2026-04-18T14:36:44.996Z</time></trkpt><trkpt lat="45.3499339" lon="8.7684587"><ele>114.0</ele><time>2026-04-18T14:38:49.995Z</time></trkpt><trkpt lat="45.3499387" lon="8.7683595"><ele>114.0</ele><time>2026-04-18T14:38:51.996Z</time></trkpt><trkpt lat="45.3498896" lon="8.7682863"><ele>114.0</ele><time>2026-04-18T14:38:57.995Z</time></trkpt><trkpt lat="45.349796" lon="8.7683128"><ele>114.0</ele><time>2026-04-18T14:39:00.995Z</time></trkpt><trkpt lat="45.3496908" lon="8.7683614"><ele>114.0</ele><time>2026-04-18T14:39:02.996Z</time></trkpt><trkpt lat="45.3496301" lon="8.7683902"><ele>114.0</ele><time>2026-04-18T14:39:03.995Z</time></trkpt><trkpt lat="45.3495577" lon="8.768422"><ele>113.80000000000001</ele><time>2026-04-18T14:39:04.996Z</time></trkpt><trkpt lat="45.3494779" lon="8.7684549"><ele>113.60000000000001</ele><time>2026-04-18T14:39:05.995Z</time></trkpt><trkpt lat="45.3493901" lon="8.7684982"><ele>113.4</ele><time>2026-04-18T14:39:06.996Z</time></trkpt><trkpt lat="45.3492986" lon="8.7685349"><ele>113.2</ele><time>2026-04-18T14:39:07.996Z</time></trkpt><trkpt lat="45.3492054" lon="8.7685753"><ele>113.0</ele><time>2026-04-18T14:39:08.996Z</time></trkpt><trkpt lat="45.3491139" lon="8.7686212"><ele>113.0</ele><time>2026-04-18T14:39:09.996Z</time></trkpt><trkpt lat="45.3490202" lon="8.7686659"><ele>113.00000000000001</ele><time>2026-04-18T14:39:10.996Z</time></trkpt><trkpt lat="45.3489231" lon="8.768707"><ele>113.00000000000001</ele><time>2026-04-18T14:39:11.995Z</time></trkpt><trkpt lat="45.3488274" lon="8.7687476"><ele>113.0</ele><time>2026-04-18T14:39:12.996Z</time></trkpt><trkpt lat="45.3487276" lon="8.768786"><ele>113.0</ele><time>2026-04-18T14:39:13.996Z</time></trkpt><trkpt lat="45.348626" lon="8.7688281"><ele>113.2</ele><time>2026-04-18T14:39:14.995Z</time></trkpt><trkpt lat="45.3485245" lon="8.7688738"><ele>113.4</ele><time>2026-04-18T14:39:15.996Z</time></trkpt><trkpt lat="45.3484223" lon="8.7689206"><ele>113.60000000000001</ele><time>2026-04-18T14:39:16.995Z</time></trkpt><trkpt lat="45.3483188" lon="8.7689675"><ele>113.80000000000001</ele><time>2026-04-18T14:39:17.996Z</time></trkpt><trkpt lat="45.3482191" lon="8.7690142"><ele>114.0</ele><time>2026-04-18T14:39:18.996Z</time></trkpt><trkpt lat="45.348119" lon="8.7690561"><ele>114.0</ele><time>2026-04-18T14:39:19.996Z</time></trkpt><trkpt lat="45.3480206" lon="8.7690992"><ele>114.0</ele><time>2026-04-18T14:39:20.996Z</time></trkpt><trkpt lat="45.347921" lon="8.7691497"><ele>114.0</ele><time>2026-04-18T14:39:21.996Z</time></trkpt><trkpt lat="45.3478187" lon="8.7692024"><ele>114.0</ele><time>2026-04-18T14:39:22.996Z</time></trkpt><trkpt lat="45.3477115" lon="8.7692493"><ele>114.0</ele><time>2026-04-18T14:39:23.995Z</time></trkpt><trkpt lat="45.3476037" lon="8.7692983"><ele>114.0</ele><time>2026-04-18T14:39:24.995Z</time></trkpt><trkpt lat="45.3474968" lon="8.7693485"><ele>114.0</ele><time>2026-04-18T14:39:25.996Z</time></trkpt><trkpt lat="45.3473885" lon="8.7693992"><ele>114.0</ele><time>2026-04-18T14:39:26.996Z</time></trkpt><trkpt lat="45.347277" lon="8.7694507"><ele>114.0</ele><time>2026-04-18T14:39:27.995Z</time></trkpt><trkpt lat="45.3471669" lon="8.769501"><ele>114.0</ele><time>2026-04-18T14:39:28.996Z</time></trkpt><trkpt lat="45.347053" lon="8.7695484"><ele>114.0</ele><time>2026-04-18T14:39:29.995Z</time></trkpt><trkpt lat="45.3469432" lon="8.7695964"><ele>114.0</ele><time>2026-04-18T14:39:30.996Z</time></trkpt><trkpt lat="45.3468382" lon="8.769639"><ele>114.0</ele><time>2026-04-18T14:39:31.996Z</time></trkpt><trkpt lat="45.3467405" lon="8.7696821"><ele>114.0</ele><time>2026-04-18T14:39:32.996Z</time></trkpt><trkpt lat="45.3466497" lon="8.7697237"><ele>114.0</ele><time>2026-04-18T14:39:33.996Z</time></trkpt><trkpt lat="45.3465665" lon="8.7697578"><ele>114.0</ele><time>2026-04-18T14:39:34.996Z</time></trkpt><trkpt lat="45.3464894" lon="8.7697888"><ele>114.0</ele><time>2026-04-18T14:39:35.996Z</time></trkpt><trkpt lat="45.3464191" lon="8.7698159"><ele>114.0</ele><time>2026-04-18T14:39:36.996Z</time></trkpt><trkpt lat="45.3463555" lon="8.7698464"><ele>114.0</ele><time>2026-04-18T14:39:37.995Z</time></trkpt><trkpt lat="45.3462923" lon="8.7698739"><ele>114.0</ele><time>2026-04-18T14:39:38.996Z</time></trkpt><trkpt lat="45.3461648" lon="8.7699282"><ele>114.0</ele><time>2026-04-18T14:39:40.996Z</time></trkpt><trkpt lat="45.3460931" lon="8.7699617"><ele>114.0</ele><time>2026-04-18T14:39:41.996Z</time></trkpt><trkpt lat="45.3460157" lon="8.7699982"><ele>114.0</ele><time>2026-04-18T14:39:42.995Z</time></trkpt><trkpt lat="45.3459375" lon="8.7700302"><ele>114.0</ele><time>2026-04-18T14:39:43.996Z</time></trkpt><trkpt lat="45.3458537" lon="8.7700607"><ele>114.0</ele><time>2026-04-18T14:39:44.996Z</time></trkpt><trkpt lat="45.3457629" lon="8.7700991"><ele>114.0</ele><time>2026-04-18T14:39:45.996Z</time></trkpt><trkpt lat="45.3456678" lon="8.7701393"><ele>114.0</ele><time>2026-04-18T14:39:46.996Z</time></trkpt><trkpt lat="45.3455604" lon="8.7701843"><ele>114.0</ele><time>2026-04-18T14:39:47.996Z</time></trkpt><trkpt lat="45.3454444" lon="8.7702334"><ele>114.0</ele><time>2026-04-18T14:39:48.996Z</time></trkpt><trkpt lat="45.3453227" lon="8.7702842"><ele>114.0</ele><time>2026-04-18T14:39:49.995Z</time></trkpt><trkpt lat="45.3452004" lon="8.7703387"><ele>113.75</ele><time>2026-04-18T14:39:50.995Z</time></trkpt><trkpt lat="45.3450787" lon="8.7703878"><ele>113.5</ele><time>2026-04-18T14:39:51.996Z</time></trkpt><trkpt lat="45.3449579" lon="8.7704444"><ele>113.25</ele><time>2026-04-18T14:39:52.995Z</time></trkpt><trkpt lat="45.3448323" lon="8.7705035"><ele>113.0</ele><time>2026-04-18T14:39:53.996Z</time></trkpt><trkpt lat="45.3447046" lon="8.7705607"><ele>113.0</ele><time>2026-04-18T14:39:54.996Z</time></trkpt><trkpt lat="45.3445759" lon="8.7706164"><ele>113.0</ele><time>2026-04-18T14:39:55.995Z</time></trkpt><trkpt lat="45.3444456" lon="8.7706641"><ele>113.0</ele><time>2026-04-18T14:39:56.996Z</time></trkpt><trkpt lat="45.3443144" lon="8.7707196"><ele>113.0</ele><time>2026-04-18T14:39:57.996Z</time></trkpt><trkpt lat="45.3441852" lon="8.7707726"><ele>113.0</ele><time>2026-04-18T14:39:58.995Z</time></trkpt><trkpt lat="45.3440525" lon="8.7708315"><ele>113.0</ele><time>2026-04-18T14:39:59.996Z</time></trkpt><trkpt lat="45.3439243" lon="8.7708878"><ele>113.0</ele><time>2026-04-18T14:40:00.996Z</time></trkpt><trkpt lat="45.3437963" lon="8.7709409"><ele>113.0</ele><time>2026-04-18T14:40:01.996Z</time></trkpt><trkpt lat="45.3436719" lon="8.7709925"><ele>112.80000000000001</ele><time>2026-04-18T14:40:02.996Z</time></trkpt><trkpt lat="45.3435562" lon="8.7710415"><ele>112.60000000000001</ele><time>2026-04-18T14:40:03.995Z</time></trkpt><trkpt lat="45.3434494" lon="8.7710815"><ele>112.39999999999999</ele><time>2026-04-18T14:40:04.996Z</time></trkpt><trkpt lat="45.3433546" lon="8.7711219"><ele>112.19999999999999</ele><time>2026-04-18T14:40:05.996Z</time></trkpt><trkpt lat="45.3432668" lon="8.7711637"><ele>112.0</ele><time>2026-04-18T14:40:06.995Z</time></trkpt><trkpt lat="45.3431928" lon="8.7711967"><ele>112.0</ele><time>2026-04-18T14:40:07.995Z</time></trkpt><trkpt lat="45.3431329" lon="8.771226"><ele>111.99999999999999</ele><time>2026-04-18T14:40:08.996Z</time></trkpt><trkpt lat="45.3430319" lon="8.7712476"><ele>111.99999999999999</ele><time>2026-04-18T14:40:10.995Z</time></trkpt><trkpt lat="45.3429152" lon="8.7711782"><ele>112.0</ele><time>2026-04-18T14:40:12.996Z</time></trkpt><trkpt lat="45.3428481" lon="8.771104"><ele>112.0</ele><time>2026-04-18T14:40:13.995Z</time></trkpt><trkpt lat="45.3427707" lon="8.7710242"><ele>112.0</ele><time>2026-04-18T14:40:14.995Z</time></trkpt><trkpt lat="45.3426917" lon="8.7709435"><ele>111.99999999999999</ele><time>2026-04-18T14:40:15.996Z</time></trkpt><trkpt lat="45.3426104" lon="8.7708649"><ele>111.99999999999999</ele><time>2026-04-18T14:40:16.996Z</time></trkpt><trkpt lat="45.3425253" lon="8.7707874"><ele>112.0</ele><time>2026-04-18T14:40:17.995Z</time></trkpt><trkpt lat="45.3424478" lon="8.7707211"><ele>112.0</ele><time>2026-04-18T14:40:18.995Z</time></trkpt><trkpt lat="45.3423863" lon="8.7706652"><ele>112.00000000000001</ele><time>2026-04-18T14:40:19.996Z</time></trkpt><trkpt lat="45.3423489" lon="8.7705906"><ele>112.0</ele><time>2026-04-18T14:40:21.996Z</time></trkpt><trkpt lat="45.3424013" lon="8.7705031"><ele>112.0</ele><time>2026-04-18T14:40:24.995Z</time></trkpt><trkpt lat="45.342504" lon="8.7704326"><ele>112.0</ele><time>2026-04-18T14:40:26.995Z</time></trkpt><trkpt lat="45.3425732" lon="8.7703846"><ele>112.00000000000001</ele><time>2026-04-18T14:40:27.995Z</time></trkpt><trkpt lat="45.3426459" lon="8.7703252"><ele>112.0</ele><time>2026-04-18T14:40:28.996Z</time></trkpt><trkpt lat="45.3427202" lon="8.7702595"><ele>112.0</ele><time>2026-04-18T14:40:29.995Z</time></trkpt><trkpt lat="45.3427968" lon="8.7701925"><ele>111.99999999999999</ele><time>2026-04-18T14:40:30.995Z</time></trkpt><trkpt lat="45.3428735" lon="8.7701183"><ele>111.99999999999999</ele><time>2026-04-18T14:40:31.995Z</time></trkpt><trkpt lat="45.3429536" lon="8.7700413"><ele>112.0</ele><time>2026-04-18T14:40:32.995Z</time></trkpt><trkpt lat="45.3430424" lon="8.7699581"><ele>112.0</ele><time>2026-04-18T14:40:33.995Z</time></trkpt><trkpt lat="45.3431365" lon="8.7698732"><ele>112.19999999999999</ele><time>2026-04-18T14:40:34.996Z</time></trkpt><trkpt lat="45.3432238" lon="8.7697845"><ele>112.39999999999999</ele><time>2026-04-18T14:40:35.996Z</time></trkpt><trkpt lat="45.3433108" lon="8.7697002"><ele>112.60000000000001</ele><time>2026-04-18T14:40:36.995Z</time></trkpt><trkpt lat="45.3434076" lon="8.7696156"><ele>112.80000000000001</ele><time>2026-04-18T14:40:37.995Z</time></trkpt><trkpt lat="45.343508" lon="8.7695294"><ele>113.0</ele><time>2026-04-18T14:40:38.996Z</time></trkpt><trkpt lat="45.3436112" lon="8.7694417"><ele>113.0</ele><time>2026-04-18T14:40:39.996Z</time></trkpt><trkpt lat="45.3437132" lon="8.7693579"><ele>113.00000000000001</ele><time>2026-04-18T14:40:40.995Z</time></trkpt><trkpt lat="45.3438094" lon="8.7692742"><ele>113.00000000000001</ele><time>2026-04-18T14:40:41.996Z</time></trkpt><trkpt lat="45.3438943" lon="8.7692021"><ele>113.0</ele><time>2026-04-18T14:40:42.996Z</time></trkpt><trkpt lat="45.3439682" lon="8.7691227"><ele>113.0</ele><time>2026-04-18T14:40:43.995Z</time></trkpt><trkpt lat="45.3440248" lon="8.769038"><ele>112.99999999999999</ele><time>2026-04-18T14:40:44.996Z</time></trkpt><trkpt lat="45.3440695" lon="8.7689533"><ele>113.0</ele><time>2026-04-18T14:40:45.996Z</time></trkpt><trkpt lat="45.344124" lon="8.7688616"><ele>113.0</ele><time>2026-04-18T14:40:47.996Z</time></trkpt><trkpt lat="45.3441956" lon="8.7688525"><ele>113.0</ele><time>2026-04-18T14:40:49.995Z</time></trkpt><trkpt lat="45.3442821" lon="8.7688836"><ele>112.99999999999999</ele><time>2026-04-18T14:40:51.996Z</time></trkpt><trkpt lat="45.3444025" lon="8.7688733"><ele>113.0</ele><time>2026-04-18T14:40:53.996Z</time></trkpt><trkpt lat="45.3444654" lon="8.7688564"><ele>112.99999999999999</ele><time>2026-04-18T14:40:54.996Z</time></trkpt><trkpt lat="45.3445331" lon="8.7688358"><ele>113.0</ele><time>2026-04-18T14:40:55.995Z</time></trkpt><trkpt lat="45.3446073" lon="8.7688176"><ele>113.0</ele><time>2026-04-18T14:40:56.995Z</time></trkpt><trkpt lat="45.3446882" lon="8.7687946"><ele>113.0</ele><time>2026-04-18T14:40:57.996Z</time></trkpt><trkpt lat="45.3447762" lon="8.7687761"><ele>112.99999999999999</ele><time>2026-04-18T14:40:58.996Z</time></trkpt><trkpt lat="45.3448698" lon="8.7687592"><ele>113.0</ele><time>2026-04-18T14:40:59.995Z</time></trkpt><trkpt lat="45.344973" lon="8.7687345"><ele>113.0</ele><time>2026-04-18T14:41:00.996Z</time></trkpt><trkpt lat="45.3450835" lon="8.7687091"><ele>113.0</ele><time>2026-04-18T14:41:01.996Z</time></trkpt><trkpt lat="45.3451957" lon="8.7686795"><ele>113.0</ele><time>2026-04-18T14:41:02.996Z</time></trkpt><trkpt lat="45.3453124" lon="8.7686448"><ele>113.0</ele><time>2026-04-18T14:41:03.996Z</time></trkpt><trkpt lat="45.3454261" lon="8.7686148"><ele>113.0</ele><time>2026-04-18T14:41:04.996Z</time></trkpt><trkpt lat="45.345533" lon="8.7685789"><ele>113.00000000000001</ele><time>2026-04-18T14:41:05.995Z</time></trkpt><trkpt lat="45.345635" lon="8.7685368"><ele>113.00000000000001</ele><time>2026-04-18T14:41:06.995Z</time></trkpt><trkpt lat="45.3457355" lon="8.7685007"><ele>113.0</ele><time>2026-04-18T14:41:07.996Z</time></trkpt><trkpt lat="45.345843" lon="8.7684681"><ele>113.0</ele><time>2026-04-18T14:41:08.996Z</time></trkpt><trkpt lat="45.3459513" lon="8.7684271"><ele>113.0</ele><time>2026-04-18T14:41:09.996Z</time></trkpt><trkpt lat="45.3460595" lon="8.7683912"><ele>113.00000000000001</ele><time>2026-04-18T14:41:10.995Z</time></trkpt><trkpt lat="45.3461662" lon="8.7683566"><ele>113.00000000000001</ele><time>2026-04-18T14:41:11.996Z</time></trkpt><trkpt lat="45.3462737" lon="8.7683123"><ele>113.0</ele><time>2026-04-18T14:41:12.995Z</time></trkpt><trkpt lat="45.346382" lon="8.7682728"><ele>113.0</ele><time>2026-04-18T14:41:13.996Z</time></trkpt><trkpt lat="45.3464827" lon="8.7682395"><ele>113.0</ele><time>2026-04-18T14:41:14.996Z</time></trkpt><trkpt lat="45.3465824" lon="8.7682054"><ele>113.00000000000001</ele><time>2026-04-18T14:41:15.995Z</time></trkpt><trkpt lat="45.3466732" lon="8.7681705"><ele>113.00000000000001</ele><time>2026-04-18T14:41:16.996Z</time></trkpt><trkpt lat="45.3467728" lon="8.7681387"><ele>113.0</ele><time>2026-04-18T14:41:17.996Z</time></trkpt><trkpt lat="45.3468734" lon="8.7681048"><ele>113.0</ele><time>2026-04-18T14:41:18.996Z</time></trkpt><trkpt lat="45.3469804" lon="8.7680698"><ele>113.0</ele><time>2026-04-18T14:41:19.995Z</time></trkpt><trkpt lat="45.3470866" lon="8.7680344"><ele>113.00000000000001</ele><time>2026-04-18T14:41:20.995Z</time></trkpt><trkpt lat="45.3471904" lon="8.7680009"><ele>113.00000000000001</ele><time>2026-04-18T14:41:21.996Z</time></trkpt><trkpt lat="45.3472805" lon="8.7679683"><ele>113.0</ele><time>2026-04-18T14:41:22.996Z</time></trkpt><trkpt lat="45.3473637" lon="8.767942"><ele>113.0</ele><time>2026-04-18T14:41:23.996Z</time></trkpt><trkpt lat="45.3474396" lon="8.7679104"><ele>113.16666666666666</ele><time>2026-04-18T14:41:24.996Z</time></trkpt><trkpt lat="45.3475193" lon="8.7678799"><ele>113.33333333333333</ele><time>2026-04-18T14:41:25.995Z</time></trkpt><trkpt lat="45.347599" lon="8.7678471"><ele>113.5</ele><time>2026-04-18T14:41:26.996Z</time></trkpt><trkpt lat="45.3476817" lon="8.7678119"><ele>113.66666666666666</ele><time>2026-04-18T14:41:27.995Z</time></trkpt><trkpt lat="45.3477725" lon="8.7677757"><ele>113.83333333333333</ele><time>2026-04-18T14:41:28.995Z</time></trkpt><trkpt lat="45.3478685" lon="8.7677409"><ele>114.0</ele><time>2026-04-18T14:41:29.995Z</time></trkpt><trkpt lat="45.3479631" lon="8.7677093"><ele>114.0</ele><time>2026-04-18T14:41:30.996Z</time></trkpt><trkpt lat="45.3480758" lon="8.7676743"><ele>114.0</ele><time>2026-04-18T14:41:31.995Z</time></trkpt><trkpt lat="45.3481967" lon="8.7676389"><ele>114.0</ele><time>2026-04-18T14:41:32.996Z</time></trkpt><trkpt lat="45.3483074" lon="8.7676058"><ele>114.0</ele><time>2026-04-18T14:41:33.996Z</time></trkpt><trkpt lat="45.3484055" lon="8.7675642"><ele>114.0</ele><time>2026-04-18T14:41:34.996Z</time></trkpt><trkpt lat="45.3484931" lon="8.7675114"><ele>114.0</ele><time>2026-04-18T14:41:35.995Z</time></trkpt><trkpt lat="45.3485816" lon="8.7674363"><ele>114.0</ele><time>2026-04-18T14:41:36.996Z</time></trkpt><trkpt lat="45.3486669" lon="8.7673504"><ele>114.0</ele><time>2026-04-18T14:41:37.995Z</time></trkpt><trkpt lat="45.3487581" lon="8.7672603"><ele>114.0</ele><time>2026-04-18T14:41:38.996Z</time></trkpt><trkpt lat="45.348858" lon="8.7671804"><ele>114.0</ele><time>2026-04-18T14:41:39.995Z</time></trkpt><trkpt lat="45.3489548" lon="8.767098"><ele>114.0</ele><time>2026-04-18T14:41:40.995Z</time></trkpt><trkpt lat="45.3490474" lon="8.7670142"><ele>114.0</ele><time>2026-04-18T14:41:41.996Z</time></trkpt><trkpt lat="45.3491373" lon="8.766933"><ele>114.0</ele><time>2026-04-18T14:41:42.996Z</time></trkpt><trkpt lat="45.3492216" lon="8.7668473"><ele>114.0</ele><time>2026-04-18T14:41:43.996Z</time></trkpt><trkpt lat="45.3493061" lon="8.7667663"><ele>114.0</ele><time>2026-04-18T14:41:44.995Z</time></trkpt><trkpt lat="45.3493859" lon="8.7666997"><ele>114.0</ele><time>2026-04-18T14:41:45.996Z</time></trkpt><trkpt lat="45.3494605" lon="8.7666303"><ele>114.0</ele><time>2026-04-18T14:41:46.995Z</time></trkpt><trkpt lat="45.3495253" lon="8.7665576"><ele>114.0</ele><time>2026-04-18T14:41:47.996Z</time></trkpt><trkpt lat="45.3495782" lon="8.7664849"><ele>114.0</ele><time>2026-04-18T14:41:48.995Z</time></trkpt><trkpt lat="45.3496194" lon="8.7664076"><ele>114.0</ele><time>2026-04-18T14:41:49.996Z</time></trkpt><trkpt lat="45.349659" lon="8.7662483"><ele>114.0</ele><time>2026-04-18T14:41:51.995Z</time></trkpt><trkpt lat="45.3496683" lon="8.766155"><ele>114.0</ele><time>2026-04-18T14:41:52.995Z</time></trkpt><trkpt lat="45.3496749" lon="8.7660452"><ele>114.0</ele><time>2026-04-18T14:41:53.995Z</time></trkpt><trkpt lat="45.3496778" lon="8.7659265"><ele>114.0</ele><time>2026-04-18T14:41:54.995Z</time></trkpt><trkpt lat="45.3496823" lon="8.7658034"><ele>114.0</ele><time>2026-04-18T14:41:55.996Z</time></trkpt><trkpt lat="45.3496793" lon="8.7656857"><ele>114.0</ele><time>2026-04-18T14:41:56.995Z</time></trkpt><trkpt lat="45.3496779" lon="8.7655591"><ele>114.0</ele><time>2026-04-18T14:41:57.996Z</time></trkpt><trkpt lat="45.3496793" lon="8.7654275"><ele>114.0</ele><time>2026-04-18T14:41:58.995Z</time></trkpt><trkpt lat="45.3496806" lon="8.7652812"><ele>114.0</ele><time>2026-04-18T14:41:59.996Z</time></trkpt><trkpt lat="45.3496818" lon="8.765131"><ele>114.0</ele><time>2026-04-18T14:42:00.996Z</time></trkpt><trkpt lat="45.349684" lon="8.7649772"><ele>114.0</ele><time>2026-04-18T14:42:01.995Z</time></trkpt><trkpt lat="45.3496872" lon="8.7648247"><ele>113.80000000000001</ele><time>2026-04-18T14:42:02.996Z</time></trkpt><trkpt lat="45.3496935" lon="8.7646792"><ele>113.60000000000001</ele><time>2026-04-18T14:42:03.995Z</time></trkpt><trkpt lat="45.3496956" lon="8.7645361"><ele>113.4</ele><time>2026-04-18T14:42:04.995Z</time></trkpt><trkpt lat="45.3496961" lon="8.7643829"><ele>113.2</ele><time>2026-04-18T14:42:05.996Z</time></trkpt><trkpt lat="45.3497061" lon="8.7642375"><ele>113.0</ele><time>2026-04-18T14:42:06.996Z</time></trkpt><trkpt lat="45.3497225" lon="8.7640906"><ele>113.0</ele><time>2026-04-18T14:42:07.996Z</time></trkpt><trkpt lat="45.3497474" lon="8.7639552"><ele>113.00000000000001</ele><time>2026-04-18T14:42:08.996Z</time></trkpt><trkpt lat="45.3497772" lon="8.7638116"><ele>113.00000000000001</ele><time>2026-04-18T14:42:09.996Z</time></trkpt><trkpt lat="45.3498112" lon="8.7636628"><ele>113.0</ele><time>2026-04-18T14:42:10.995Z</time></trkpt><trkpt lat="45.3498448" lon="8.7635161"><ele>113.0</ele><time>2026-04-18T14:42:11.996Z</time></trkpt><trkpt lat="45.3498698" lon="8.7633747"><ele>113.0</ele><time>2026-04-18T14:42:12.996Z</time></trkpt><trkpt lat="45.3498845" lon="8.7632312"><ele>113.00000000000001</ele><time>2026-04-18T14:42:13.996Z</time></trkpt><trkpt lat="45.3498908" lon="8.7630857"><ele>113.00000000000001</ele><time>2026-04-18T14:42:14.996Z</time></trkpt><trkpt lat="45.3498895" lon="8.7629346"><ele>113.0</ele><time>2026-04-18T14:42:15.996Z</time></trkpt><trkpt lat="45.3498923" lon="8.7627654"><ele>113.0</ele><time>2026-04-18T14:42:16.996Z</time></trkpt><trkpt lat="45.349891" lon="8.7625864"><ele>113.0</ele><time>2026-04-18T14:42:17.996Z</time></trkpt><trkpt lat="45.3498902" lon="8.762409"><ele>113.0</ele><time>2026-04-18T14:42:18.996Z</time></trkpt><trkpt lat="45.3498941" lon="8.7622385"><ele>113.0</ele><time>2026-04-18T14:42:19.995Z</time></trkpt><trkpt lat="45.3498921" lon="8.7620736"><ele>113.0</ele><time>2026-04-18T14:42:20.996Z</time></trkpt><trkpt lat="45.3498936" lon="8.7619146"><ele>113.2</ele><time>2026-04-18T14:42:21.996Z</time></trkpt><trkpt lat="45.3498934" lon="8.7617656"><ele>113.4</ele><time>2026-04-18T14:42:22.996Z</time></trkpt><trkpt lat="45.3498946" lon="8.7616185"><ele>113.60000000000001</ele><time>2026-04-18T14:42:23.996Z</time></trkpt><trkpt lat="45.3498977" lon="8.7614771"><ele>113.80000000000001</ele><time>2026-04-18T14:42:24.996Z</time></trkpt><trkpt lat="45.3499042" lon="8.7613291"><ele>114.0</ele><time>2026-04-18T14:42:25.996Z</time></trkpt><trkpt lat="45.3499112" lon="8.7611777"><ele>114.16666666666667</ele><time>2026-04-18T14:42:26.996Z</time></trkpt><trkpt lat="45.3499104" lon="8.7610285"><ele>114.33333333333334</ele><time>2026-04-18T14:42:27.996Z</time></trkpt><trkpt lat="45.3499158" lon="8.7608994"><ele>114.5</ele><time>2026-04-18T14:42:28.996Z</time></trkpt><trkpt lat="45.349914" lon="8.7607731"><ele>114.66666666666667</ele><time>2026-04-18T14:42:29.996Z</time></trkpt><trkpt lat="45.3499044" lon="8.7606582"><ele>114.83333333333334</ele><time>2026-04-18T14:42:30.996Z</time></trkpt><trkpt lat="45.3498821" lon="8.7605502"><ele>115.0</ele><time>2026-04-18T14:42:31.995Z</time></trkpt><trkpt lat="45.3498514" lon="8.7604463"><ele>115.0</ele><time>2026-04-18T14:42:32.996Z</time></trkpt><trkpt lat="45.3498114" lon="8.7603412"><ele>115.0</ele><time>2026-04-18T14:42:33.996Z</time></trkpt><trkpt lat="45.3497688" lon="8.760239"><ele>115.0</ele><time>2026-04-18T14:42:34.995Z</time></trkpt><trkpt lat="45.3497212" lon="8.7601218"><ele>115.0</ele><time>2026-04-18T14:42:35.995Z</time></trkpt><trkpt lat="45.3496683" lon="8.7600051"><ele>115.0</ele><time>2026-04-18T14:42:36.996Z</time></trkpt><trkpt lat="45.3496211" lon="8.7598761"><ele>114.8</ele><time>2026-04-18T14:42:37.996Z</time></trkpt><trkpt lat="45.3495766" lon="8.7597389"><ele>114.6</ele><time>2026-04-18T14:42:38.996Z</time></trkpt><trkpt lat="45.3495336" lon="8.7595976"><ele>114.4</ele><time>2026-04-18T14:42:39.995Z</time></trkpt><trkpt lat="45.3494967" lon="8.7594526"><ele>114.2</ele><time>2026-04-18T14:42:40.996Z</time></trkpt><trkpt lat="45.3494652" lon="8.7593208"><ele>114.0</ele><time>2026-04-18T14:42:41.996Z</time></trkpt><trkpt lat="45.3494311" lon="8.7591936"><ele>114.0</ele><time>2026-04-18T14:42:42.996Z</time></trkpt><trkpt lat="45.349395" lon="8.7590785"><ele>114.0</ele><time>2026-04-18T14:42:43.996Z</time></trkpt><trkpt lat="45.3493535" lon="8.7589694"><ele>114.0</ele><time>2026-04-18T14:42:44.995Z</time></trkpt><trkpt lat="45.3493038" lon="8.7588668"><ele>114.0</ele><time>2026-04-18T14:42:45.996Z</time></trkpt><trkpt lat="45.349245" lon="8.7587638"><ele>114.0</ele><time>2026-04-18T14:42:46.996Z</time></trkpt><trkpt lat="45.3491842" lon="8.7586571"><ele>114.0</ele><time>2026-04-18T14:42:47.995Z</time></trkpt><trkpt lat="45.3491195" lon="8.7585497"><ele>114.0</ele><time>2026-04-18T14:42:48.995Z</time></trkpt><trkpt lat="45.3490514" lon="8.7584363"><ele>114.0</ele><time>2026-04-18T14:42:49.995Z</time></trkpt><trkpt lat="45.3489823" lon="8.7583159"><ele>114.0</ele><time>2026-04-18T14:42:50.996Z</time></trkpt><trkpt lat="45.3489137" lon="8.758194"><ele>114.0</ele><time>2026-04-18T14:42:51.996Z</time></trkpt><trkpt lat="45.3488396" lon="8.7580674"><ele>114.0</ele><time>2026-04-18T14:42:52.995Z</time></trkpt><trkpt lat="45.3487693" lon="8.7579479"><ele>114.0</ele><time>2026-04-18T14:42:53.996Z</time></trkpt><trkpt lat="45.3487038" lon="8.7578364"><ele>114.0</ele><time>2026-04-18T14:42:54.996Z</time></trkpt><trkpt lat="45.3486402" lon="8.7577267"><ele>114.0</ele><time>2026-04-18T14:42:55.995Z</time></trkpt><trkpt lat="45.3485772" lon="8.7576144"><ele>114.0</ele><time>2026-04-18T14:42:56.995Z</time></trkpt><trkpt lat="45.3485098" lon="8.7574931"><ele>114.0</ele><time>2026-04-18T14:42:57.996Z</time></trkpt><trkpt lat="45.3484494" lon="8.7573866"><ele>114.0</ele><time>2026-04-18T14:42:58.996Z</time></trkpt><trkpt lat="45.3483936" lon="8.7572922"><ele>114.0</ele><time>2026-04-18T14:42:59.995Z</time></trkpt><trkpt lat="45.3483423" lon="8.7572059"><ele>114.0</ele><time>2026-04-18T14:43:00.996Z</time></trkpt><trkpt lat="45.3482965" lon="8.757127"><ele>114.0</ele><time>2026-04-18T14:43:01.996Z</time></trkpt><trkpt lat="45.3482169" lon="8.7570093"><ele>114.0</ele><time>2026-04-18T14:43:03.996Z</time></trkpt><trkpt lat="45.3481701" lon="8.7569014"><ele>114.0</ele><time>2026-04-18T14:43:05.996Z</time></trkpt><trkpt lat="45.348199" lon="8.7567787"><ele>114.0</ele><time>2026-04-18T14:43:07.996Z</time></trkpt><trkpt lat="45.3482468" lon="8.7567081"><ele>114.0</ele><time>2026-04-18T14:43:08.996Z</time></trkpt><trkpt lat="45.3483128" lon="8.7566179"><ele>114.0</ele><time>2026-04-18T14:43:09.995Z</time></trkpt><trkpt lat="45.3483783" lon="8.7565303"><ele>114.0</ele><time>2026-04-18T14:43:10.996Z</time></trkpt><trkpt lat="45.3484356" lon="8.7564411"><ele>114.0</ele><time>2026-04-18T14:43:11.996Z</time></trkpt><trkpt lat="45.3484889" lon="8.7563494"><ele>114.0</ele><time>2026-04-18T14:43:12.995Z</time></trkpt><trkpt lat="45.3485321" lon="8.7562534"><ele>114.0</ele><time>2026-04-18T14:43:13.996Z</time></trkpt><trkpt lat="45.3485584" lon="8.7561476"><ele>114.0</ele><time>2026-04-18T14:43:14.996Z</time></trkpt><trkpt lat="45.3485766" lon="8.7560408"><ele>114.0</ele><time>2026-04-18T14:43:15.996Z</time></trkpt><trkpt lat="45.3485725" lon="8.7559321"><ele>114.0</ele><time>2026-04-18T14:43:16.996Z</time></trkpt><trkpt lat="45.3485509" lon="8.7558323"><ele>114.0</ele><time>2026-04-18T14:43:17.995Z</time></trkpt><trkpt lat="45.3485147" lon="8.7557253"><ele>114.0</ele><time>2026-04-18T14:43:18.996Z</time></trkpt><trkpt lat="45.3484735" lon="8.7556072"><ele>114.0</ele><time>2026-04-18T14:43:19.996Z</time></trkpt><trkpt lat="45.3484215" lon="8.7554793"><ele>114.0</ele><time>2026-04-18T14:43:20.996Z</time></trkpt><trkpt lat="45.3483647" lon="8.7553485"><ele>114.0</ele><time>2026-04-18T14:43:21.995Z</time></trkpt><trkpt lat="45.3483096" lon="8.7552071"><ele>114.0</ele><time>2026-04-18T14:43:22.995Z</time></trkpt><trkpt lat="45.3482519" lon="8.7550738"><ele>114.0</ele><time>2026-04-18T14:43:23.995Z</time></trkpt><trkpt lat="45.3481983" lon="8.7549486"><ele>114.0</ele><time>2026-04-18T14:43:24.996Z</time></trkpt><trkpt lat="45.3481477" lon="8.7548366"><ele>114.0</ele><time>2026-04-18T14:43:25.996Z</time></trkpt><trkpt lat="45.3480957" lon="8.7547296"><ele>114.0</ele><time>2026-04-18T14:43:26.996Z</time></trkpt><trkpt lat="45.3480387" lon="8.7546172"><ele>114.0</ele><time>2026-04-18T14:43:27.996Z</time></trkpt><trkpt lat="45.347982" lon="8.7545015"><ele>114.4</ele><time>2026-04-18T14:43:28.996Z</time></trkpt><trkpt lat="45.3479244" lon="8.7543886"><ele>114.80000000000001</ele><time>2026-04-18T14:43:29.995Z</time></trkpt><trkpt lat="45.347867" lon="8.7542679"><ele>115.19999999999999</ele><time>2026-04-18T14:43:30.995Z</time></trkpt><trkpt lat="45.3477981" lon="8.7541283"><ele>115.6</ele><time>2026-04-18T14:43:31.996Z</time></trkpt><trkpt lat="45.3477225" lon="8.7539872"><ele>116.0</ele><time>2026-04-18T14:43:32.996Z</time></trkpt><trkpt lat="45.3476525" lon="8.7538477"><ele>116.25</ele><time>2026-04-18T14:43:33.996Z</time></trkpt><trkpt lat="45.3475824" lon="8.753708"><ele>116.5</ele><time>2026-04-18T14:43:34.996Z</time></trkpt><trkpt lat="45.3475093" lon="8.7535677"><ele>116.75</ele><time>2026-04-18T14:43:35.996Z</time></trkpt><trkpt lat="45.3474414" lon="8.7534392"><ele>117.0</ele><time>2026-04-18T14:43:36.996Z</time></trkpt><trkpt lat="45.3473862" lon="8.7533177"><ele>117.0</ele><time>2026-04-18T14:43:37.995Z</time></trkpt><trkpt lat="45.347337" lon="8.7532058"><ele>117.0</ele><time>2026-04-18T14:43:38.996Z</time></trkpt><trkpt lat="45.3473141" lon="8.7530828"><ele>117.0</ele><time>2026-04-18T14:43:39.996Z</time></trkpt><trkpt lat="45.3473037" lon="8.7529683"><ele>117.0</ele><time>2026-04-18T14:43:40.995Z</time></trkpt><trkpt lat="45.3472946" lon="8.752859"><ele>117.0</ele><time>2026-04-18T14:43:41.996Z</time></trkpt><trkpt lat="45.3472868" lon="8.7527548"><ele>117.0</ele><time>2026-04-18T14:43:42.996Z</time></trkpt><trkpt lat="45.3473029" lon="8.7526045"><ele>117.16666666666667</ele><time>2026-04-18T14:43:44.996Z</time></trkpt><trkpt lat="45.3473704" lon="8.7525335"><ele>117.33333333333334</ele><time>2026-04-18T14:43:46.995Z</time></trkpt><trkpt lat="45.3474935" lon="8.7524726"><ele>117.5</ele><time>2026-04-18T14:43:48.996Z</time></trkpt><trkpt lat="45.3475607" lon="8.7524443"><ele>117.66666666666667</ele><time>2026-04-18T14:43:49.995Z</time></trkpt><trkpt lat="45.3476286" lon="8.7524118"><ele>117.83333333333334</ele><time>2026-04-18T14:43:50.996Z</time></trkpt><trkpt lat="45.3476978" lon="8.7523723"><ele>118.0</ele><time>2026-04-18T14:43:51.995Z</time></trkpt><trkpt lat="45.3477742" lon="8.7523317"><ele>118.0</ele><time>2026-04-18T14:43:52.995Z</time></trkpt><trkpt lat="45.3478576" lon="8.7522933"><ele>118.00000000000001</ele><time>2026-04-18T14:43:53.995Z</time></trkpt><trkpt lat="45.3479511" lon="8.7522559"><ele>118.00000000000001</ele><time>2026-04-18T14:43:54.996Z</time></trkpt><trkpt lat="45.3480465" lon="8.7522186"><ele>118.0</ele><time>2026-04-18T14:43:55.996Z</time></trkpt><trkpt lat="45.3481432" lon="8.752195"><ele>118.0</ele><time>2026-04-18T14:43:56.995Z</time></trkpt><trkpt lat="45.3482481" lon="8.7521692"><ele>117.5</ele><time>2026-04-18T14:43:57.995Z</time></trkpt><trkpt lat="45.3483546" lon="8.7521438"><ele>117.0</ele><time>2026-04-18T14:43:58.996Z</time></trkpt><trkpt lat="45.3484635" lon="8.7521206"><ele>116.5</ele><time>2026-04-18T14:43:59.996Z</time></trkpt><trkpt lat="45.34858" lon="8.7520927"><ele>116.0</ele><time>2026-04-18T14:44:00.995Z</time></trkpt><trkpt lat="45.3487028" lon="8.7520638"><ele>116.0</ele><time>2026-04-18T14:44:01.995Z</time></trkpt><trkpt lat="45.3488312" lon="8.7520298"><ele>116.0</ele><time>2026-04-18T14:44:02.995Z</time></trkpt><trkpt lat="45.3489589" lon="8.7520042"><ele>116.0</ele><time>2026-04-18T14:44:03.996Z</time></trkpt><trkpt lat="45.3490801" lon="8.751977"><ele>116.0</ele><time>2026-04-18T14:44:04.995Z</time></trkpt><trkpt lat="45.3491987" lon="8.7519491"><ele>116.0</ele><time>2026-04-18T14:44:05.995Z</time></trkpt><trkpt lat="45.3493151" lon="8.7519237"><ele>116.0</ele><time>2026-04-18T14:44:06.996Z</time></trkpt><trkpt lat="45.3494265" lon="8.7518996"><ele>116.0</ele><time>2026-04-18T14:44:07.996Z</time></trkpt><trkpt lat="45.3495322" lon="8.751879"><ele>116.0</ele><time>2026-04-18T14:44:08.995Z</time></trkpt><trkpt lat="45.3496372" lon="8.7518581"><ele>116.0</ele><time>2026-04-18T14:44:09.995Z</time></trkpt><trkpt lat="45.3497392" lon="8.7518378"><ele>115.83333333333333</ele><time>2026-04-18T14:44:10.996Z</time></trkpt><trkpt lat="45.3498349" lon="8.7518174"><ele>115.66666666666666</ele><time>2026-04-18T14:44:11.995Z</time></trkpt><trkpt lat="45.3499228" lon="8.7517966"><ele>115.5</ele><time>2026-04-18T14:44:12.996Z</time></trkpt><trkpt lat="45.3500058" lon="8.751772"><ele>115.33333333333334</ele><time>2026-04-18T14:44:13.995Z</time></trkpt><trkpt lat="45.3500693" lon="8.7517548"><ele>115.16666666666667</ele><time>2026-04-18T14:44:14.996Z</time></trkpt><trkpt lat="45.3501559" lon="8.7517224"><ele>115.0</ele><time>2026-04-18T14:44:16.996Z</time></trkpt><trkpt lat="45.3502283" lon="8.7516799"><ele>115.00000000000001</ele><time>2026-04-18T14:44:19.996Z</time></trkpt><trkpt lat="45.3503155" lon="8.7516259"><ele>115.0</ele><time>2026-04-18T14:44:21.996Z</time></trkpt><trkpt lat="45.3503739" lon="8.7515879"><ele>115.0</ele><time>2026-04-18T14:44:22.996Z</time></trkpt><trkpt lat="45.35044" lon="8.7515502"><ele>115.0</ele><time>2026-04-18T14:44:23.995Z</time></trkpt><trkpt lat="45.3505123" lon="8.7515105"><ele>115.00000000000001</ele><time>2026-04-18T14:44:24.996Z</time></trkpt><trkpt lat="45.3505937" lon="8.7514782"><ele>115.0</ele><time>2026-04-18T14:44:25.996Z</time></trkpt><trkpt lat="45.3506851" lon="8.7514461"><ele>115.4</ele><time>2026-04-18T14:44:26.996Z</time></trkpt><trkpt lat="45.3507806" lon="8.7514229"><ele>115.8</ele><time>2026-04-18T14:44:27.996Z</time></trkpt><trkpt lat="45.3508841" lon="8.7514036"><ele>116.19999999999999</ele><time>2026-04-18T14:44:28.996Z</time></trkpt><trkpt lat="45.3509896" lon="8.7513886"><ele>116.6</ele><time>2026-04-18T14:44:29.996Z</time></trkpt><trkpt lat="45.3511009" lon="8.7513759"><ele>117.0</ele><time>2026-04-18T14:44:30.996Z</time></trkpt><trkpt lat="45.3512159" lon="8.7513591"><ele>117.0</ele><time>2026-04-18T14:44:31.996Z</time></trkpt><trkpt lat="45.3513233" lon="8.7513476"><ele>116.99999999999999</ele><time>2026-04-18T14:44:32.996Z</time></trkpt><trkpt lat="45.3514302" lon="8.7513302"><ele>116.99999999999999</ele><time>2026-04-18T14:44:33.995Z</time></trkpt><trkpt lat="45.3515365" lon="8.7513191"><ele>117.0</ele><time>2026-04-18T14:44:34.996Z</time></trkpt><trkpt lat="45.3516433" lon="8.7513083"><ele>117.0</ele><time>2026-04-18T14:44:35.996Z</time></trkpt><trkpt lat="45.3517493" lon="8.7512954"><ele>117.0</ele><time>2026-04-18T14:44:36.996Z</time></trkpt><trkpt lat="45.3518585" lon="8.7512776"><ele>116.99999999999999</ele><time>2026-04-18T14:44:37.995Z</time></trkpt><trkpt lat="45.3519703" lon="8.7512604"><ele>116.99999999999999</ele><time>2026-04-18T14:44:38.996Z</time></trkpt><trkpt lat="45.3520821" lon="8.7512458"><ele>117.0</ele><time>2026-04-18T14:44:39.996Z</time></trkpt><trkpt lat="45.3521831" lon="8.7512317"><ele>117.0</ele><time>2026-04-18T14:44:40.996Z</time></trkpt><trkpt lat="45.3522779" lon="8.7512189"><ele>116.66666666666667</ele><time>2026-04-18T14:44:41.996Z</time></trkpt><trkpt lat="45.352363" lon="8.751208"><ele>116.33333333333334</ele><time>2026-04-18T14:44:42.996Z</time></trkpt><trkpt lat="45.3524423" lon="8.7511967"><ele>116.0</ele><time>2026-04-18T14:44:43.996Z</time></trkpt><trkpt lat="45.3525177" lon="8.7511895"><ele>115.66666666666667</ele><time>2026-04-18T14:44:44.995Z</time></trkpt><trkpt lat="45.3525852" lon="8.7511826"><ele>115.33333333333334</ele><time>2026-04-18T14:44:45.996Z</time></trkpt><trkpt lat="45.3527104" lon="8.751167"><ele>115.0</ele><time>2026-04-18T14:44:47.996Z</time></trkpt><trkpt lat="45.3527999" lon="8.751161"><ele>115.0</ele><time>2026-04-18T14:44:49.996Z</time></trkpt><trkpt lat="45.3526653" lon="8.7511732"><ele>115.0</ele><time>2026-04-18T14:46:11.995Z</time></trkpt><trkpt lat="45.3525926" lon="8.7511699"><ele>115.0</ele><time>2026-04-18T14:46:14.996Z</time></trkpt><trkpt lat="45.3525058" lon="8.7511772"><ele>115.0</ele><time>2026-04-18T14:46:16.996Z</time></trkpt><trkpt lat="45.352393" lon="8.7511926"><ele>115.0</ele><time>2026-04-18T14:46:18.995Z</time></trkpt><trkpt lat="45.3523238" lon="8.7512001"><ele>115.00000000000001</ele><time>2026-04-18T14:46:19.996Z</time></trkpt><trkpt lat="45.352249" lon="8.7512148"><ele>115.0</ele><time>2026-04-18T14:46:20.996Z</time></trkpt><trkpt lat="45.3521678" lon="8.7512276"><ele>115.0</ele><time>2026-04-18T14:46:21.996Z</time></trkpt><trkpt lat="45.3520873" lon="8.7512404"><ele>115.0</ele><time>2026-04-18T14:46:22.996Z</time></trkpt><trkpt lat="45.3520063" lon="8.7512502"><ele>115.00000000000001</ele><time>2026-04-18T14:46:23.996Z</time></trkpt><trkpt lat="45.3519177" lon="8.7512604"><ele>115.0</ele><time>2026-04-18T14:46:24.996Z</time></trkpt><trkpt lat="45.3518249" lon="8.7512692"><ele>115.4</ele><time>2026-04-18T14:46:25.996Z</time></trkpt><trkpt lat="45.3517291" lon="8.7512858"><ele>115.8</ele><time>2026-04-18T14:46:26.996Z</time></trkpt><trkpt lat="45.3516306" lon="8.7513031"><ele>116.19999999999999</ele><time>2026-04-18T14:46:27.996Z</time></trkpt><trkpt lat="45.3515284" lon="8.7513188"><ele>116.6</ele><time>2026-04-18T14:46:28.996Z</time></trkpt><trkpt lat="45.3514235" lon="8.7513304"><ele>117.0</ele><time>2026-04-18T14:46:29.996Z</time></trkpt><trkpt lat="45.3513221" lon="8.7513413"><ele>117.0</ele><time>2026-04-18T14:46:30.996Z</time></trkpt><trkpt lat="45.3512214" lon="8.7513504"><ele>116.99999999999999</ele><time>2026-04-18T14:46:31.995Z</time></trkpt><trkpt lat="45.3511171" lon="8.7513628"><ele>116.99999999999999</ele><time>2026-04-18T14:46:32.995Z</time></trkpt><trkpt lat="45.3510181" lon="8.7513793"><ele>117.0</ele><time>2026-04-18T14:46:33.996Z</time></trkpt><trkpt lat="45.3509284" lon="8.7513902"><ele>117.0</ele><time>2026-04-18T14:46:34.995Z</time></trkpt><trkpt lat="45.3508492" lon="8.751402"><ele>117.0</ele><time>2026-04-18T14:46:35.996Z</time></trkpt><trkpt lat="45.3507805" lon="8.751415"><ele>117.00000000000001</ele><time>2026-04-18T14:46:36.995Z</time></trkpt><trkpt lat="45.3507171" lon="8.7514279"><ele>117.0</ele><time>2026-04-18T14:46:37.995Z</time></trkpt><trkpt lat="45.3506533" lon="8.7514412"><ele>117.0</ele><time>2026-04-18T14:46:38.996Z</time></trkpt><trkpt lat="45.350582" lon="8.7514677"><ele>117.00000000000001</ele><time>2026-04-18T14:46:39.996Z</time></trkpt><trkpt lat="45.3505153" lon="8.7514972"><ele>117.0</ele><time>2026-04-18T14:46:40.996Z</time></trkpt><trkpt lat="45.350449" lon="8.7515336"><ele>117.0</ele><time>2026-04-18T14:46:41.996Z</time></trkpt><trkpt lat="45.3503844" lon="8.7515788"><ele>116.66666666666667</ele><time>2026-04-18T14:46:42.996Z</time></trkpt><trkpt lat="45.3503246" lon="8.7516156"><ele>116.33333333333334</ele><time>2026-04-18T14:46:43.996Z</time></trkpt><trkpt lat="45.3502315" lon="8.751668"><ele>116.0</ele><time>2026-04-18T14:46:45.996Z</time></trkpt><trkpt lat="45.350163" lon="8.751629"><ele>115.66666666666667</ele><time>2026-04-18T14:46:47.995Z</time></trkpt><trkpt lat="45.3501267" lon="8.7515174"><ele>115.33333333333334</ele><time>2026-04-18T14:46:49.996Z</time></trkpt><trkpt lat="45.3501012" lon="8.7513517"><ele>115.0</ele><time>2026-04-18T14:46:51.995Z</time></trkpt><trkpt lat="45.3500809" lon="8.7512616"><ele>115.00000000000001</ele><time>2026-04-18T14:46:52.996Z</time></trkpt><trkpt lat="45.3500618" lon="8.7511664"><ele>115.0</ele><time>2026-04-18T14:46:53.996Z</time></trkpt><trkpt lat="45.3500427" lon="8.7510656"><ele>115.0</ele><time>2026-04-18T14:46:54.995Z</time></trkpt><trkpt lat="45.3500224" lon="8.7509504"><ele>115.0</ele><time>2026-04-18T14:46:55.996Z</time></trkpt><trkpt lat="45.3500001" lon="8.7508271"><ele>115.00000000000001</ele><time>2026-04-18T14:46:56.996Z</time></trkpt><trkpt lat="45.3499774" lon="8.7507016"><ele>115.0</ele><time>2026-04-18T14:46:57.996Z</time></trkpt><trkpt lat="45.3499521" lon="8.7505706"><ele>115.0</ele><time>2026-04-18T14:46:58.995Z</time></trkpt><trkpt lat="45.3499246" lon="8.75043"><ele>115.0</ele><time>2026-04-18T14:46:59.995Z</time></trkpt><trkpt lat="45.3499004" lon="8.7502832"><ele>115.0</ele><time>2026-04-18T14:47:00.995Z</time></trkpt><trkpt lat="45.3498751" lon="8.750137"><ele>115.0</ele><time>2026-04-18T14:47:01.995Z</time></trkpt><trkpt lat="45.3498493" lon="8.7499939"><ele>115.0</ele><time>2026-04-18T14:47:02.996Z</time></trkpt><trkpt lat="45.3498257" lon="8.7498603"><ele>115.00000000000001</ele><time>2026-04-18T14:47:03.996Z</time></trkpt><trkpt lat="45.3498021" lon="8.7497339"><ele>115.0</ele><time>2026-04-18T14:47:04.996Z</time></trkpt><trkpt lat="45.3497821" lon="8.7496318"><ele>115.0</ele><time>2026-04-18T14:47:05.996Z</time></trkpt><trkpt lat="45.3497641" lon="8.7495456"><ele>115.0</ele><time>2026-04-18T14:47:06.996Z</time></trkpt><trkpt lat="45.3497012" lon="8.7494299"><ele>115.00000000000001</ele><time>2026-04-18T14:47:08.996Z</time></trkpt><trkpt lat="45.349601" lon="8.7493912"><ele>115.0</ele><time>2026-04-18T14:47:10.995Z</time></trkpt><trkpt lat="45.3494746" lon="8.7494228"><ele>115.0</ele><time>2026-04-18T14:47:12.996Z</time></trkpt><trkpt lat="45.3494071" lon="8.7494394"><ele>115.0</ele><time>2026-04-18T14:47:13.995Z</time></trkpt><trkpt lat="45.3492963" lon="8.7493994"><ele>115.0</ele><time>2026-04-18T14:47:15.996Z</time></trkpt><trkpt lat="45.3492312" lon="8.7492561"><ele>115.0</ele><time>2026-04-18T14:47:17.996Z</time></trkpt><trkpt lat="45.3492049" lon="8.7491506"><ele>115.0</ele><time>2026-04-18T14:47:18.996Z</time></trkpt><trkpt lat="45.3491735" lon="8.7490286"><ele>115.0</ele><time>2026-04-18T14:47:19.996Z</time></trkpt><trkpt lat="45.3491409" lon="8.7488988"><ele>115.0</ele><time>2026-04-18T14:47:20.995Z</time></trkpt><trkpt lat="45.3491012" lon="8.7487507"><ele>115.0</ele><time>2026-04-18T14:47:21.995Z</time></trkpt><trkpt lat="45.3490577" lon="8.7485934"><ele>115.0</ele><time>2026-04-18T14:47:22.996Z</time></trkpt><trkpt lat="45.349011" lon="8.7484318"><ele>115.2</ele><time>2026-04-18T14:47:23.995Z</time></trkpt><trkpt lat="45.3489627" lon="8.7482723"><ele>115.4</ele><time>2026-04-18T14:47:24.996Z</time></trkpt><trkpt lat="45.3489174" lon="8.7481324"><ele>115.6</ele><time>2026-04-18T14:47:25.996Z</time></trkpt><trkpt lat="45.3488787" lon="8.7479988"><ele>115.8</ele><time>2026-04-18T14:47:26.996Z</time></trkpt><trkpt lat="45.348847" lon="8.7478829"><ele>116.0</ele><time>2026-04-18T14:47:27.995Z</time></trkpt><trkpt lat="45.3488242" lon="8.7477885"><ele>116.16666666666666</ele><time>2026-04-18T14:47:28.996Z</time></trkpt><trkpt lat="45.3487811" lon="8.7476687"><ele>116.33333333333333</ele><time>2026-04-18T14:47:30.995Z</time></trkpt><trkpt lat="45.3487124" lon="8.7476437"><ele>116.5</ele><time>2026-04-18T14:47:33.996Z</time></trkpt><trkpt lat="45.348652" lon="8.7477108"><ele>116.66666666666666</ele><time>2026-04-18T14:47:35.995Z</time></trkpt><trkpt lat="45.3486064" lon="8.7477868"><ele>116.83333333333333</ele><time>2026-04-18T14:47:36.996Z</time></trkpt><trkpt lat="45.3485527" lon="8.7478793"><ele>117.0</ele><time>2026-04-18T14:47:37.996Z</time></trkpt><trkpt lat="45.3484919" lon="8.7479798"><ele>117.0</ele><time>2026-04-18T14:47:38.996Z</time></trkpt><trkpt lat="45.3484227" lon="8.7480984"><ele>117.0</ele><time>2026-04-18T14:47:39.996Z</time></trkpt><trkpt lat="45.3483467" lon="8.7482197"><ele>117.0</ele><time>2026-04-18T14:47:40.995Z</time></trkpt><trkpt lat="45.3482689" lon="8.7483498"><ele>117.0</ele><time>2026-04-18T14:47:41.996Z</time></trkpt><trkpt lat="45.3481861" lon="8.7484759"><ele>117.0</ele><time>2026-04-18T14:47:42.995Z</time></trkpt><trkpt lat="45.3481129" lon="8.7485976"><ele>116.99999999999999</ele><time>2026-04-18T14:47:43.996Z</time></trkpt><trkpt lat="45.3480412" lon="8.7487084"><ele>116.99999999999999</ele><time>2026-04-18T14:47:44.995Z</time></trkpt><trkpt lat="45.3479768" lon="8.7488102"><ele>117.0</ele><time>2026-04-18T14:47:45.995Z</time></trkpt><trkpt lat="45.3479233" lon="8.748902"><ele>117.0</ele><time>2026-04-18T14:47:46.996Z</time></trkpt><trkpt lat="45.3478659" lon="8.7489829"><ele>117.0</ele><time>2026-04-18T14:47:47.996Z</time></trkpt><trkpt lat="45.3478127" lon="8.7490701"><ele>117.0</ele><time>2026-04-18T14:47:48.995Z</time></trkpt><trkpt lat="45.3477618" lon="8.7491556"><ele>117.0</ele><time>2026-04-18T14:47:49.996Z</time></trkpt><trkpt lat="45.347718" lon="8.7492336"><ele>117.0</ele><time>2026-04-18T14:47:50.996Z</time></trkpt><trkpt lat="45.3476685" lon="8.7492961"><ele>117.0</ele><time>2026-04-18T14:47:51.995Z</time></trkpt><trkpt lat="45.3475997" lon="8.7493559"><ele>117.0</ele><time>2026-04-18T14:47:53.995Z</time></trkpt><trkpt lat="45.3475124" lon="8.7493109"><ele>117.0</ele><time>2026-04-18T14:47:56.996Z</time></trkpt><trkpt lat="45.3474618" lon="8.7492359"><ele>116.99999999999999</ele><time>2026-04-18T14:47:57.996Z</time></trkpt><trkpt lat="45.3474072" lon="8.7491133"><ele>116.99999999999999</ele><time>2026-04-18T14:47:58.996Z</time></trkpt><trkpt lat="45.3473555" lon="8.7489846"><ele>117.0</ele><time>2026-04-18T14:47:59.995Z</time></trkpt><trkpt lat="45.3473055" lon="8.7488475"><ele>117.0</ele><time>2026-04-18T14:48:00.995Z</time></trkpt><trkpt lat="45.3472521" lon="8.7486985"><ele>116.75</ele><time>2026-04-18T14:48:01.996Z</time></trkpt><trkpt lat="45.3471892" lon="8.7485428"><ele>116.5</ele><time>2026-04-18T14:48:02.995Z</time></trkpt><trkpt lat="45.3471221" lon="8.7483821"><ele>116.25</ele><time>2026-04-18T14:48:03.995Z</time></trkpt><trkpt lat="45.3470561" lon="8.7482403"><ele>116.0</ele><time>2026-04-18T14:48:04.996Z</time></trkpt><trkpt lat="45.3469765" lon="8.7481197"><ele>116.0</ele><time>2026-04-18T14:48:05.995Z</time></trkpt><trkpt lat="45.3468911" lon="8.7480099"><ele>116.0</ele><time>2026-04-18T14:48:06.995Z</time></trkpt><trkpt lat="45.3468131" lon="8.7479099"><ele>116.0</ele><time>2026-04-18T14:48:07.996Z</time></trkpt><trkpt lat="45.3467399" lon="8.7478334"><ele>116.0</ele><time>2026-04-18T14:48:08.996Z</time></trkpt><trkpt lat="45.3466679" lon="8.7477293"><ele>116.0</ele><time>2026-04-18T14:48:10.996Z</time></trkpt></trkseg></trk></gpx>